<?xml version="1.0" encoding="UTF-8" standalone="no" ?>
<gpx xmlns="http://www.topografix.com/GPX/1/1" xmlns:xsi="http://www.w3.org/2001/XMLSchema-instance" xsi:schemaLocation="http://www.topografix.com/GPX/1/1 http://www.topografix.com/GPX/1/1/gpx.xsd" version="1.1" creator="VisuGPX - https://www.visugpx.com">
  <metadata>
    <name>Première sortie montée ds son nouvel endroit de vie,  pour Gringo</name>
    <desc><![CDATA[En compagnie de Limpio, un pas très actif, on a une bonne allure.... très en forme et pas mal de petits trots pour "dépasser" son compagnon ^^]]></desc>
  </metadata>
  <trk>
    <name><![CDATA[1h Gringo et Limpio]]></name>
    <trkseg>
      <trkpt lat="48.70501" lon="1.75501">
        <ele>180.80000305176</ele>
        <time>2012-12-25T09:27:01.000Z</time>
      </trkpt>
      <trkpt lat="48.70492" lon="1.75488">
        <ele>180.60000610352</ele>
        <time>2012-12-25T09:27:09.000Z</time>
      </trkpt>
      <trkpt lat="48.70488" lon="1.75484">
        <ele>180.39999389648</ele>
        <time>2012-12-25T09:27:12.000Z</time>
      </trkpt>
      <trkpt lat="48.70482" lon="1.75478">
        <ele>180.39999389648</ele>
        <time>2012-12-25T09:27:17.000Z</time>
      </trkpt>
      <trkpt lat="48.70477" lon="1.75473">
        <ele>180.39999389648</ele>
        <time>2012-12-25T09:27:22.000Z</time>
      </trkpt>
      <trkpt lat="48.70469" lon="1.75465">
        <ele>180.39999389648</ele>
        <time>2012-12-25T09:27:28.000Z</time>
      </trkpt>
      <trkpt lat="48.7046" lon="1.75458">
        <ele>180.60000610352</ele>
        <time>2012-12-25T09:27:34.000Z</time>
      </trkpt>
      <trkpt lat="48.70452" lon="1.75452">
        <ele>180.80000305176</ele>
        <time>2012-12-25T09:27:41.000Z</time>
      </trkpt>
      <trkpt lat="48.70444" lon="1.75444">
        <ele>180.80000305176</ele>
        <time>2012-12-25T09:27:47.000Z</time>
      </trkpt>
      <trkpt lat="48.70437" lon="1.75437">
        <ele>181.19999694824</ele>
        <time>2012-12-25T09:27:53.000Z</time>
      </trkpt>
      <trkpt lat="48.7043" lon="1.75434">
        <ele>181.39999389648</ele>
        <time>2012-12-25T09:27:59.000Z</time>
      </trkpt>
      <trkpt lat="48.70424" lon="1.75428">
        <ele>181.60000610352</ele>
        <time>2012-12-25T09:28:05.000Z</time>
      </trkpt>
      <trkpt lat="48.70415" lon="1.75424">
        <ele>182</ele>
        <time>2012-12-25T09:28:12.000Z</time>
      </trkpt>
      <trkpt lat="48.70408" lon="1.75419">
        <ele>181.80000305176</ele>
        <time>2012-12-25T09:28:18.000Z</time>
      </trkpt>
      <trkpt lat="48.70396" lon="1.75413">
        <ele>181.60000610352</ele>
        <time>2012-12-25T09:28:27.000Z</time>
      </trkpt>
      <trkpt lat="48.70391" lon="1.75408">
        <ele>181.19999694824</ele>
        <time>2012-12-25T09:28:33.000Z</time>
      </trkpt>
      <trkpt lat="48.70389" lon="1.75407">
        <ele>181.19999694824</ele>
        <time>2012-12-25T09:28:35.000Z</time>
      </trkpt>
      <trkpt lat="48.70382" lon="1.75405">
        <ele>181.19999694824</ele>
        <time>2012-12-25T09:28:40.000Z</time>
      </trkpt>
      <trkpt lat="48.70372" lon="1.75397">
        <ele>181</ele>
        <time>2012-12-25T09:28:48.000Z</time>
      </trkpt>
      <trkpt lat="48.70367" lon="1.75392">
        <ele>180.80000305176</ele>
        <time>2012-12-25T09:28:53.000Z</time>
      </trkpt>
      <trkpt lat="48.70363" lon="1.75389">
        <ele>180.80000305176</ele>
        <time>2012-12-25T09:28:57.000Z</time>
      </trkpt>
      <trkpt lat="48.70355" lon="1.75381">
        <ele>180.80000305176</ele>
        <time>2012-12-25T09:29:05.000Z</time>
      </trkpt>
      <trkpt lat="48.70347" lon="1.75369">
        <ele>180.60000610352</ele>
        <time>2012-12-25T09:29:13.000Z</time>
      </trkpt>
      <trkpt lat="48.70346" lon="1.75368">
        <ele>180.60000610352</ele>
        <time>2012-12-25T09:29:14.000Z</time>
      </trkpt>
      <trkpt lat="48.70342" lon="1.75362">
        <ele>180.80000305176</ele>
        <time>2012-12-25T09:29:19.000Z</time>
      </trkpt>
      <trkpt lat="48.70334" lon="1.7536">
        <ele>180.80000305176</ele>
        <time>2012-12-25T09:29:27.000Z</time>
      </trkpt>
      <trkpt lat="48.70325" lon="1.75355">
        <ele>180.60000610352</ele>
        <time>2012-12-25T09:29:33.000Z</time>
      </trkpt>
      <trkpt lat="48.70316" lon="1.75347">
        <ele>180.39999389648</ele>
        <time>2012-12-25T09:29:40.000Z</time>
      </trkpt>
      <trkpt lat="48.7031" lon="1.75335">
        <ele>180.39999389648</ele>
        <time>2012-12-25T09:29:47.000Z</time>
      </trkpt>
      <trkpt lat="48.70306" lon="1.75323">
        <ele>180.39999389648</ele>
        <time>2012-12-25T09:29:54.000Z</time>
      </trkpt>
      <trkpt lat="48.703" lon="1.7531">
        <ele>180.39999389648</ele>
        <time>2012-12-25T09:30:01.000Z</time>
      </trkpt>
      <trkpt lat="48.70292" lon="1.75299">
        <ele>180.39999389648</ele>
        <time>2012-12-25T09:30:10.000Z</time>
      </trkpt>
      <trkpt lat="48.70282" lon="1.75292">
        <ele>180.19999694824</ele>
        <time>2012-12-25T09:30:18.000Z</time>
      </trkpt>
      <trkpt lat="48.70273" lon="1.75286">
        <ele>180</ele>
        <time>2012-12-25T09:30:25.000Z</time>
      </trkpt>
      <trkpt lat="48.70265" lon="1.75279">
        <ele>180</ele>
        <time>2012-12-25T09:30:33.000Z</time>
      </trkpt>
      <trkpt lat="48.70258" lon="1.75271">
        <ele>179.80000305176</ele>
        <time>2012-12-25T09:30:41.000Z</time>
      </trkpt>
      <trkpt lat="48.70251" lon="1.75265">
        <ele>179.80000305176</ele>
        <time>2012-12-25T09:30:47.000Z</time>
      </trkpt>
      <trkpt lat="48.7025" lon="1.75265">
        <ele>179.80000305176</ele>
        <time>2012-12-25T09:30:48.000Z</time>
      </trkpt>
      <trkpt lat="48.70244" lon="1.7526">
        <ele>179.39999389648</ele>
        <time>2012-12-25T09:30:54.000Z</time>
      </trkpt>
      <trkpt lat="48.7024" lon="1.75258">
        <ele>179.39999389648</ele>
        <time>2012-12-25T09:30:57.000Z</time>
      </trkpt>
      <trkpt lat="48.70229" lon="1.7525">
        <ele>178.80000305176</ele>
        <time>2012-12-25T09:31:05.000Z</time>
      </trkpt>
      <trkpt lat="48.70221" lon="1.75245">
        <ele>178.39999389648</ele>
        <time>2012-12-25T09:31:12.000Z</time>
      </trkpt>
      <trkpt lat="48.70212" lon="1.75246">
        <ele>178</ele>
        <time>2012-12-25T09:31:21.000Z</time>
      </trkpt>
      <trkpt lat="48.70203" lon="1.75248">
        <ele>177.60000610352</ele>
        <time>2012-12-25T09:31:29.000Z</time>
      </trkpt>
      <trkpt lat="48.702" lon="1.75248">
        <ele>177.39999389648</ele>
        <time>2012-12-25T09:31:32.000Z</time>
      </trkpt>
      <trkpt lat="48.70193" lon="1.75251">
        <ele>177.19999694824</ele>
        <time>2012-12-25T09:31:41.000Z</time>
      </trkpt>
      <trkpt lat="48.70185" lon="1.75254">
        <ele>176.80000305176</ele>
        <time>2012-12-25T09:31:47.000Z</time>
      </trkpt>
      <trkpt lat="48.70179" lon="1.75257">
        <ele>176.39999389648</ele>
        <time>2012-12-25T09:31:52.000Z</time>
      </trkpt>
      <trkpt lat="48.7017" lon="1.7526">
        <ele>176</ele>
        <time>2012-12-25T09:31:58.000Z</time>
      </trkpt>
      <trkpt lat="48.70163" lon="1.75259">
        <ele>175.80000305176</ele>
        <time>2012-12-25T09:32:03.000Z</time>
      </trkpt>
      <trkpt lat="48.70159" lon="1.75263">
        <ele>175.80000305176</ele>
        <time>2012-12-25T09:32:09.000Z</time>
      </trkpt>
      <trkpt lat="48.70155" lon="1.75269">
        <ele>175.80000305176</ele>
        <time>2012-12-25T09:32:14.000Z</time>
      </trkpt>
      <trkpt lat="48.70148" lon="1.75273">
        <ele>175.80000305176</ele>
        <time>2012-12-25T09:32:21.000Z</time>
      </trkpt>
      <trkpt lat="48.70143" lon="1.75274">
        <ele>175.60000610352</ele>
        <time>2012-12-25T09:32:25.000Z</time>
      </trkpt>
      <trkpt lat="48.70136" lon="1.75279">
        <ele>175.60000610352</ele>
        <time>2012-12-25T09:32:32.000Z</time>
      </trkpt>
      <trkpt lat="48.70133" lon="1.7528">
        <ele>175.39999389648</ele>
        <time>2012-12-25T09:32:34.000Z</time>
      </trkpt>
      <trkpt lat="48.70123" lon="1.75285">
        <ele>175.19999694824</ele>
        <time>2012-12-25T09:32:42.000Z</time>
      </trkpt>
      <trkpt lat="48.70116" lon="1.75289">
        <ele>175</ele>
        <time>2012-12-25T09:32:48.000Z</time>
      </trkpt>
      <trkpt lat="48.70113" lon="1.75291">
        <ele>175</ele>
        <time>2012-12-25T09:32:51.000Z</time>
      </trkpt>
      <trkpt lat="48.70106" lon="1.75293">
        <ele>174.80000305176</ele>
        <time>2012-12-25T09:32:56.000Z</time>
      </trkpt>
      <trkpt lat="48.70095" lon="1.75296">
        <ele>174.39999389648</ele>
        <time>2012-12-25T09:33:04.000Z</time>
      </trkpt>
      <trkpt lat="48.70087" lon="1.753">
        <ele>174.19999694824</ele>
        <time>2012-12-25T09:33:10.000Z</time>
      </trkpt>
      <trkpt lat="48.70084" lon="1.75301">
        <ele>174</ele>
        <time>2012-12-25T09:33:13.000Z</time>
      </trkpt>
      <trkpt lat="48.70072" lon="1.75306">
        <ele>173.80000305176</ele>
        <time>2012-12-25T09:33:22.000Z</time>
      </trkpt>
      <trkpt lat="48.70062" lon="1.75311">
        <ele>173.39999389648</ele>
        <time>2012-12-25T09:33:29.000Z</time>
      </trkpt>
      <trkpt lat="48.70058" lon="1.75312">
        <ele>173.19999694824</ele>
        <time>2012-12-25T09:33:33.000Z</time>
      </trkpt>
      <trkpt lat="48.70049" lon="1.75315">
        <ele>173</ele>
        <time>2012-12-25T09:33:40.000Z</time>
      </trkpt>
      <trkpt lat="48.70046" lon="1.75317">
        <ele>173</ele>
        <time>2012-12-25T09:33:44.000Z</time>
      </trkpt>
      <trkpt lat="48.70038" lon="1.75321">
        <ele>172.80000305176</ele>
        <time>2012-12-25T09:33:51.000Z</time>
      </trkpt>
      <trkpt lat="48.70037" lon="1.75322">
        <ele>172.60000610352</ele>
        <time>2012-12-25T09:33:52.000Z</time>
      </trkpt>
      <trkpt lat="48.70028" lon="1.75327">
        <ele>172.39999389648</ele>
        <time>2012-12-25T09:33:58.000Z</time>
      </trkpt>
      <trkpt lat="48.70026" lon="1.75327">
        <ele>172.39999389648</ele>
        <time>2012-12-25T09:33:59.000Z</time>
      </trkpt>
      <trkpt lat="48.70017" lon="1.75331">
        <ele>172.19999694824</ele>
        <time>2012-12-25T09:34:06.000Z</time>
      </trkpt>
      <trkpt lat="48.70011" lon="1.75335">
        <ele>172</ele>
        <time>2012-12-25T09:34:11.000Z</time>
      </trkpt>
      <trkpt lat="48.70001" lon="1.75342">
        <ele>171.60000610352</ele>
        <time>2012-12-25T09:34:18.000Z</time>
      </trkpt>
      <trkpt lat="48.69999" lon="1.75343">
        <ele>171.60000610352</ele>
        <time>2012-12-25T09:34:20.000Z</time>
      </trkpt>
      <trkpt lat="48.69989" lon="1.75347">
        <ele>171.60000610352</ele>
        <time>2012-12-25T09:34:28.000Z</time>
      </trkpt>
      <trkpt lat="48.69988" lon="1.75347">
        <ele>171.60000610352</ele>
        <time>2012-12-25T09:34:29.000Z</time>
      </trkpt>
      <trkpt lat="48.69981" lon="1.75352">
        <ele>171.60000610352</ele>
        <time>2012-12-25T09:34:35.000Z</time>
      </trkpt>
      <trkpt lat="48.69974" lon="1.75355">
        <ele>171.60000610352</ele>
        <time>2012-12-25T09:34:41.000Z</time>
      </trkpt>
      <trkpt lat="48.69968" lon="1.75357">
        <ele>171.60000610352</ele>
        <time>2012-12-25T09:34:45.000Z</time>
      </trkpt>
      <trkpt lat="48.69964" lon="1.7536">
        <ele>171.60000610352</ele>
        <time>2012-12-25T09:34:48.000Z</time>
      </trkpt>
      <trkpt lat="48.69956" lon="1.75366">
        <ele>171.60000610352</ele>
        <time>2012-12-25T09:34:56.000Z</time>
      </trkpt>
      <trkpt lat="48.69944" lon="1.75371">
        <ele>171.80000305176</ele>
        <time>2012-12-25T09:35:05.000Z</time>
      </trkpt>
      <trkpt lat="48.69936" lon="1.75375">
        <ele>172</ele>
        <time>2012-12-25T09:35:11.000Z</time>
      </trkpt>
      <trkpt lat="48.69928" lon="1.75378">
        <ele>172</ele>
        <time>2012-12-25T09:35:17.000Z</time>
      </trkpt>
      <trkpt lat="48.69919" lon="1.75382">
        <ele>172.19999694824</ele>
        <time>2012-12-25T09:35:24.000Z</time>
      </trkpt>
      <trkpt lat="48.69915" lon="1.75384">
        <ele>172.19999694824</ele>
        <time>2012-12-25T09:35:27.000Z</time>
      </trkpt>
      <trkpt lat="48.69907" lon="1.75388">
        <ele>172</ele>
        <time>2012-12-25T09:35:32.000Z</time>
      </trkpt>
      <trkpt lat="48.69906" lon="1.75388">
        <ele>172</ele>
        <time>2012-12-25T09:35:33.000Z</time>
      </trkpt>
      <trkpt lat="48.69898" lon="1.75391">
        <ele>171.80000305176</ele>
        <time>2012-12-25T09:35:39.000Z</time>
      </trkpt>
      <trkpt lat="48.69897" lon="1.75393">
        <ele>171.80000305176</ele>
        <time>2012-12-25T09:35:42.000Z</time>
      </trkpt>
      <trkpt lat="48.6989" lon="1.75395">
        <ele>171.60000610352</ele>
        <time>2012-12-25T09:35:46.000Z</time>
      </trkpt>
      <trkpt lat="48.69882" lon="1.75397">
        <ele>171.39999389648</ele>
        <time>2012-12-25T09:35:51.000Z</time>
      </trkpt>
      <trkpt lat="48.69872" lon="1.75402">
        <ele>171.19999694824</ele>
        <time>2012-12-25T09:35:57.000Z</time>
      </trkpt>
      <trkpt lat="48.69867" lon="1.75405">
        <ele>171</ele>
        <time>2012-12-25T09:36:01.000Z</time>
      </trkpt>
      <trkpt lat="48.69854" lon="1.75412">
        <ele>170.39999389648</ele>
        <time>2012-12-25T09:36:10.000Z</time>
      </trkpt>
      <trkpt lat="48.69851" lon="1.75414">
        <ele>170.39999389648</ele>
        <time>2012-12-25T09:36:13.000Z</time>
      </trkpt>
      <trkpt lat="48.69846" lon="1.75416">
        <ele>170.19999694824</ele>
        <time>2012-12-25T09:36:17.000Z</time>
      </trkpt>
      <trkpt lat="48.69835" lon="1.75419">
        <ele>169.80000305176</ele>
        <time>2012-12-25T09:36:25.000Z</time>
      </trkpt>
      <trkpt lat="48.69827" lon="1.75423">
        <ele>169.39999389648</ele>
        <time>2012-12-25T09:36:32.000Z</time>
      </trkpt>
      <trkpt lat="48.69818" lon="1.75427">
        <ele>169</ele>
        <time>2012-12-25T09:36:37.000Z</time>
      </trkpt>
      <trkpt lat="48.69807" lon="1.75433">
        <ele>168.39999389648</ele>
        <time>2012-12-25T09:36:45.000Z</time>
      </trkpt>
      <trkpt lat="48.69798" lon="1.75439">
        <ele>167.80000305176</ele>
        <time>2012-12-25T09:36:51.000Z</time>
      </trkpt>
      <trkpt lat="48.69787" lon="1.75442">
        <ele>167.19999694824</ele>
        <time>2012-12-25T09:36:59.000Z</time>
      </trkpt>
      <trkpt lat="48.69778" lon="1.75447">
        <ele>166.60000610352</ele>
        <time>2012-12-25T09:37:06.000Z</time>
      </trkpt>
      <trkpt lat="48.69766" lon="1.75451">
        <ele>165.80000305176</ele>
        <time>2012-12-25T09:37:14.000Z</time>
      </trkpt>
      <trkpt lat="48.69756" lon="1.75456">
        <ele>165.19999694824</ele>
        <time>2012-12-25T09:37:20.000Z</time>
      </trkpt>
      <trkpt lat="48.69739" lon="1.75463">
        <ele>164.19999694824</ele>
        <time>2012-12-25T09:37:30.000Z</time>
      </trkpt>
      <trkpt lat="48.69726" lon="1.7547">
        <ele>163.19999694824</ele>
        <time>2012-12-25T09:37:38.000Z</time>
      </trkpt>
      <trkpt lat="48.6971" lon="1.75478">
        <ele>162</ele>
        <time>2012-12-25T09:37:48.000Z</time>
      </trkpt>
      <trkpt lat="48.69696" lon="1.75484">
        <ele>161</ele>
        <time>2012-12-25T09:37:57.000Z</time>
      </trkpt>
      <trkpt lat="48.69693" lon="1.75485">
        <ele>160.80000305176</ele>
        <time>2012-12-25T09:37:59.000Z</time>
      </trkpt>
      <trkpt lat="48.69681" lon="1.75492">
        <ele>160</ele>
        <time>2012-12-25T09:38:07.000Z</time>
      </trkpt>
      <trkpt lat="48.69664" lon="1.755">
        <ele>158.80000305176</ele>
        <time>2012-12-25T09:38:17.000Z</time>
      </trkpt>
      <trkpt lat="48.69655" lon="1.75503">
        <ele>158.39999389648</ele>
        <time>2012-12-25T09:38:23.000Z</time>
      </trkpt>
      <trkpt lat="48.69648" lon="1.75507">
        <ele>158.19999694824</ele>
        <time>2012-12-25T09:38:29.000Z</time>
      </trkpt>
      <trkpt lat="48.69647" lon="1.75508">
        <ele>158.19999694824</ele>
        <time>2012-12-25T09:38:30.000Z</time>
      </trkpt>
      <trkpt lat="48.69641" lon="1.75513">
        <ele>157.80000305176</ele>
        <time>2012-12-25T09:38:37.000Z</time>
      </trkpt>
      <trkpt lat="48.6963" lon="1.75517">
        <ele>157.39999389648</ele>
        <time>2012-12-25T09:38:44.000Z</time>
      </trkpt>
      <trkpt lat="48.69622" lon="1.75521">
        <ele>157.19999694824</ele>
        <time>2012-12-25T09:38:51.000Z</time>
      </trkpt>
      <trkpt lat="48.69613" lon="1.75524">
        <ele>156.80000305176</ele>
        <time>2012-12-25T09:38:56.000Z</time>
      </trkpt>
      <trkpt lat="48.69612" lon="1.75524">
        <ele>156.80000305176</ele>
        <time>2012-12-25T09:39:00.000Z</time>
      </trkpt>
      <trkpt lat="48.69605" lon="1.75528">
        <ele>156.60000610352</ele>
        <time>2012-12-25T09:39:07.000Z</time>
      </trkpt>
      <trkpt lat="48.69595" lon="1.75533">
        <ele>156.19999694824</ele>
        <time>2012-12-25T09:39:10.000Z</time>
      </trkpt>
      <trkpt lat="48.69587" lon="1.75538">
        <ele>156</ele>
        <time>2012-12-25T09:39:16.000Z</time>
      </trkpt>
      <trkpt lat="48.69577" lon="1.7554">
        <ele>155.80000305176</ele>
        <time>2012-12-25T09:39:24.000Z</time>
      </trkpt>
      <trkpt lat="48.69566" lon="1.75544">
        <ele>155.80000305176</ele>
        <time>2012-12-25T09:39:32.000Z</time>
      </trkpt>
      <trkpt lat="48.69561" lon="1.75546">
        <ele>155.60000610352</ele>
        <time>2012-12-25T09:39:36.000Z</time>
      </trkpt>
      <trkpt lat="48.69555" lon="1.75547">
        <ele>155.60000610352</ele>
        <time>2012-12-25T09:39:43.000Z</time>
      </trkpt>
      <trkpt lat="48.69544" lon="1.75553">
        <ele>155.60000610352</ele>
        <time>2012-12-25T09:39:52.000Z</time>
      </trkpt>
      <trkpt lat="48.69537" lon="1.75556">
        <ele>155.60000610352</ele>
        <time>2012-12-25T09:39:58.000Z</time>
      </trkpt>
      <trkpt lat="48.69529" lon="1.75562">
        <ele>155.60000610352</ele>
        <time>2012-12-25T09:40:05.000Z</time>
      </trkpt>
      <trkpt lat="48.69516" lon="1.75568">
        <ele>155.60000610352</ele>
        <time>2012-12-25T09:40:15.000Z</time>
      </trkpt>
      <trkpt lat="48.6951" lon="1.75572">
        <ele>155.60000610352</ele>
        <time>2012-12-25T09:40:20.000Z</time>
      </trkpt>
      <trkpt lat="48.69497" lon="1.75577">
        <ele>156</ele>
        <time>2012-12-25T09:40:30.000Z</time>
      </trkpt>
      <trkpt lat="48.69486" lon="1.75583">
        <ele>156.60000610352</ele>
        <time>2012-12-25T09:40:36.000Z</time>
      </trkpt>
      <trkpt lat="48.69477" lon="1.75587">
        <ele>157.19999694824</ele>
        <time>2012-12-25T09:40:43.000Z</time>
      </trkpt>
      <trkpt lat="48.69466" lon="1.75594">
        <ele>158</ele>
        <time>2012-12-25T09:40:52.000Z</time>
      </trkpt>
      <trkpt lat="48.69456" lon="1.75596">
        <ele>158.60000610352</ele>
        <time>2012-12-25T09:41:00.000Z</time>
      </trkpt>
      <trkpt lat="48.69444" lon="1.756">
        <ele>159.19999694824</ele>
        <time>2012-12-25T09:41:09.000Z</time>
      </trkpt>
      <trkpt lat="48.69435" lon="1.756">
        <ele>159.60000610352</ele>
        <time>2012-12-25T09:41:16.000Z</time>
      </trkpt>
      <trkpt lat="48.69427" lon="1.75602">
        <ele>160</ele>
        <time>2012-12-25T09:41:22.000Z</time>
      </trkpt>
      <trkpt lat="48.69417" lon="1.75602">
        <ele>160.60000610352</ele>
        <time>2012-12-25T09:41:29.000Z</time>
      </trkpt>
      <trkpt lat="48.69407" lon="1.75603">
        <ele>160.80000305176</ele>
        <time>2012-12-25T09:41:36.000Z</time>
      </trkpt>
      <trkpt lat="48.69397" lon="1.75601">
        <ele>160.80000305176</ele>
        <time>2012-12-25T09:41:43.000Z</time>
      </trkpt>
      <trkpt lat="48.69388" lon="1.756">
        <ele>160.80000305176</ele>
        <time>2012-12-25T09:41:48.000Z</time>
      </trkpt>
      <trkpt lat="48.69378" lon="1.75598">
        <ele>160.80000305176</ele>
        <time>2012-12-25T09:41:56.000Z</time>
      </trkpt>
      <trkpt lat="48.69369" lon="1.75597">
        <ele>160.80000305176</ele>
        <time>2012-12-25T09:42:03.000Z</time>
      </trkpt>
      <trkpt lat="48.69361" lon="1.75596">
        <ele>161</ele>
        <time>2012-12-25T09:42:08.000Z</time>
      </trkpt>
      <trkpt lat="48.69355" lon="1.75596">
        <ele>161</ele>
        <time>2012-12-25T09:42:12.000Z</time>
      </trkpt>
      <trkpt lat="48.69344" lon="1.75594">
        <ele>161</ele>
        <time>2012-12-25T09:42:20.000Z</time>
      </trkpt>
      <trkpt lat="48.69335" lon="1.7559">
        <ele>161</ele>
        <time>2012-12-25T09:42:27.000Z</time>
      </trkpt>
      <trkpt lat="48.69332" lon="1.7559">
        <ele>161</ele>
        <time>2012-12-25T09:42:29.000Z</time>
      </trkpt>
      <trkpt lat="48.69324" lon="1.7558">
        <ele>160.60000610352</ele>
        <time>2012-12-25T09:42:37.000Z</time>
      </trkpt>
      <trkpt lat="48.69315" lon="1.7557">
        <ele>160.19999694824</ele>
        <time>2012-12-25T09:42:46.000Z</time>
      </trkpt>
      <trkpt lat="48.69314" lon="1.75569">
        <ele>160.19999694824</ele>
        <time>2012-12-25T09:42:47.000Z</time>
      </trkpt>
      <trkpt lat="48.6931" lon="1.75565">
        <ele>160</ele>
        <time>2012-12-25T09:42:51.000Z</time>
      </trkpt>
      <trkpt lat="48.69301" lon="1.75556">
        <ele>159.80000305176</ele>
        <time>2012-12-25T09:42:59.000Z</time>
      </trkpt>
      <trkpt lat="48.69299" lon="1.75554">
        <ele>159.60000610352</ele>
        <time>2012-12-25T09:43:01.000Z</time>
      </trkpt>
      <trkpt lat="48.69287" lon="1.75541">
        <ele>159.19999694824</ele>
        <time>2012-12-25T09:43:12.000Z</time>
      </trkpt>
      <trkpt lat="48.69277" lon="1.75531">
        <ele>158.80000305176</ele>
        <time>2012-12-25T09:43:20.000Z</time>
      </trkpt>
      <trkpt lat="48.69265" lon="1.75519">
        <ele>158.39999389648</ele>
        <time>2012-12-25T09:43:29.000Z</time>
      </trkpt>
      <trkpt lat="48.69257" lon="1.75511">
        <ele>158.19999694824</ele>
        <time>2012-12-25T09:43:36.000Z</time>
      </trkpt>
      <trkpt lat="48.69248" lon="1.75502">
        <ele>157.80000305176</ele>
        <time>2012-12-25T09:43:43.000Z</time>
      </trkpt>
      <trkpt lat="48.69247" lon="1.75501">
        <ele>157.80000305176</ele>
        <time>2012-12-25T09:43:44.000Z</time>
      </trkpt>
      <trkpt lat="48.69242" lon="1.75496">
        <ele>157.80000305176</ele>
        <time>2012-12-25T09:43:48.000Z</time>
      </trkpt>
      <trkpt lat="48.69238" lon="1.7549">
        <ele>158</ele>
        <time>2012-12-25T09:43:52.000Z</time>
      </trkpt>
      <trkpt lat="48.69229" lon="1.75483">
        <ele>158</ele>
        <time>2012-12-25T09:43:59.000Z</time>
      </trkpt>
      <trkpt lat="48.69218" lon="1.75471">
        <ele>158</ele>
        <time>2012-12-25T09:44:08.000Z</time>
      </trkpt>
      <trkpt lat="48.6921" lon="1.75464">
        <ele>158</ele>
        <time>2012-12-25T09:44:15.000Z</time>
      </trkpt>
      <trkpt lat="48.69203" lon="1.75455">
        <ele>158.19999694824</ele>
        <time>2012-12-25T09:44:22.000Z</time>
      </trkpt>
      <trkpt lat="48.69197" lon="1.7545">
        <ele>158</ele>
        <time>2012-12-25T09:44:28.000Z</time>
      </trkpt>
      <trkpt lat="48.69188" lon="1.75442">
        <ele>158</ele>
        <time>2012-12-25T09:44:36.000Z</time>
      </trkpt>
      <trkpt lat="48.69179" lon="1.75434">
        <ele>158</ele>
        <time>2012-12-25T09:44:43.000Z</time>
      </trkpt>
      <trkpt lat="48.69168" lon="1.75422">
        <ele>157.80000305176</ele>
        <time>2012-12-25T09:44:52.000Z</time>
      </trkpt>
      <trkpt lat="48.69157" lon="1.75411">
        <ele>158</ele>
        <time>2012-12-25T09:45:00.000Z</time>
      </trkpt>
      <trkpt lat="48.69149" lon="1.75404">
        <ele>158.19999694824</ele>
        <time>2012-12-25T09:45:07.000Z</time>
      </trkpt>
      <trkpt lat="48.69139" lon="1.75395">
        <ele>158.39999389648</ele>
        <time>2012-12-25T09:45:13.000Z</time>
      </trkpt>
      <trkpt lat="48.69122" lon="1.75378">
        <ele>158.60000610352</ele>
        <time>2012-12-25T09:45:19.000Z</time>
      </trkpt>
      <trkpt lat="48.69103" lon="1.75361">
        <ele>158.80000305176</ele>
        <time>2012-12-25T09:45:25.000Z</time>
      </trkpt>
      <trkpt lat="48.69081" lon="1.75339">
        <ele>158.60000610352</ele>
        <time>2012-12-25T09:45:33.000Z</time>
      </trkpt>
      <trkpt lat="48.69059" lon="1.75319">
        <ele>158.19999694824</ele>
        <time>2012-12-25T09:45:40.000Z</time>
      </trkpt>
      <trkpt lat="48.69033" lon="1.75296">
        <ele>157.19999694824</ele>
        <time>2012-12-25T09:45:48.000Z</time>
      </trkpt>
      <trkpt lat="48.69014" lon="1.75277">
        <ele>156.19999694824</ele>
        <time>2012-12-25T09:45:55.000Z</time>
      </trkpt>
      <trkpt lat="48.69005" lon="1.75277">
        <ele>155.80000305176</ele>
        <time>2012-12-25T09:45:59.000Z</time>
      </trkpt>
      <trkpt lat="48.68991" lon="1.75275">
        <ele>155.19999694824</ele>
        <time>2012-12-25T09:46:04.000Z</time>
      </trkpt>
      <trkpt lat="48.68972" lon="1.75277">
        <ele>154.80000305176</ele>
        <time>2012-12-25T09:46:10.000Z</time>
      </trkpt>
      <trkpt lat="48.68957" lon="1.75276">
        <ele>154.39999389648</ele>
        <time>2012-12-25T09:46:15.000Z</time>
      </trkpt>
      <trkpt lat="48.68946" lon="1.75259">
        <ele>153.80000305176</ele>
        <time>2012-12-25T09:46:20.000Z</time>
      </trkpt>
      <trkpt lat="48.68935" lon="1.75236">
        <ele>153.39999389648</ele>
        <time>2012-12-25T09:46:26.000Z</time>
      </trkpt>
      <trkpt lat="48.68922" lon="1.75214">
        <ele>153</ele>
        <time>2012-12-25T09:46:32.000Z</time>
      </trkpt>
      <trkpt lat="48.68915" lon="1.75203">
        <ele>153</ele>
        <time>2012-12-25T09:46:37.000Z</time>
      </trkpt>
      <trkpt lat="48.68912" lon="1.75196">
        <ele>153</ele>
        <time>2012-12-25T09:46:42.000Z</time>
      </trkpt>
      <trkpt lat="48.68904" lon="1.75191">
        <ele>153.19999694824</ele>
        <time>2012-12-25T09:46:48.000Z</time>
      </trkpt>
      <trkpt lat="48.68898" lon="1.75181">
        <ele>153.39999389648</ele>
        <time>2012-12-25T09:46:55.000Z</time>
      </trkpt>
      <trkpt lat="48.68896" lon="1.75167">
        <ele>153.39999389648</ele>
        <time>2012-12-25T09:47:00.000Z</time>
      </trkpt>
      <trkpt lat="48.68894" lon="1.75162">
        <ele>153.39999389648</ele>
        <time>2012-12-25T09:47:02.000Z</time>
      </trkpt>
      <trkpt lat="48.68891" lon="1.75146">
        <ele>153.60000610352</ele>
        <time>2012-12-25T09:47:12.000Z</time>
      </trkpt>
      <trkpt lat="48.68885" lon="1.75132">
        <ele>154</ele>
        <time>2012-12-25T09:47:17.000Z</time>
      </trkpt>
      <trkpt lat="48.68877" lon="1.75118">
        <ele>154.19999694824</ele>
        <time>2012-12-25T09:47:25.000Z</time>
      </trkpt>
      <trkpt lat="48.6887" lon="1.75105">
        <ele>154.39999389648</ele>
        <time>2012-12-25T09:47:33.000Z</time>
      </trkpt>
      <trkpt lat="48.68863" lon="1.7509">
        <ele>154.60000610352</ele>
        <time>2012-12-25T09:47:41.000Z</time>
      </trkpt>
      <trkpt lat="48.68855" lon="1.75077">
        <ele>154.60000610352</ele>
        <time>2012-12-25T09:47:49.000Z</time>
      </trkpt>
      <trkpt lat="48.68848" lon="1.75061">
        <ele>154.80000305176</ele>
        <time>2012-12-25T09:47:58.000Z</time>
      </trkpt>
      <trkpt lat="48.68847" lon="1.7506">
        <ele>154.80000305176</ele>
        <time>2012-12-25T09:47:59.000Z</time>
      </trkpt>
      <trkpt lat="48.68839" lon="1.75044">
        <ele>154.80000305176</ele>
        <time>2012-12-25T09:48:08.000Z</time>
      </trkpt>
      <trkpt lat="48.68833" lon="1.75031">
        <ele>155</ele>
        <time>2012-12-25T09:48:15.000Z</time>
      </trkpt>
      <trkpt lat="48.68826" lon="1.75017">
        <ele>155</ele>
        <time>2012-12-25T09:48:23.000Z</time>
      </trkpt>
      <trkpt lat="48.68819" lon="1.75003">
        <ele>155</ele>
        <time>2012-12-25T09:48:31.000Z</time>
      </trkpt>
      <trkpt lat="48.68812" lon="1.74989">
        <ele>155.19999694824</ele>
        <time>2012-12-25T09:48:39.000Z</time>
      </trkpt>
      <trkpt lat="48.6881" lon="1.74985">
        <ele>155.39999389648</ele>
        <time>2012-12-25T09:48:41.000Z</time>
      </trkpt>
      <trkpt lat="48.68804" lon="1.74971">
        <ele>155.60000610352</ele>
        <time>2012-12-25T09:48:48.000Z</time>
      </trkpt>
      <trkpt lat="48.68795" lon="1.74956">
        <ele>155.80000305176</ele>
        <time>2012-12-25T09:48:54.000Z</time>
      </trkpt>
      <trkpt lat="48.68794" lon="1.74954">
        <ele>156</ele>
        <time>2012-12-25T09:48:55.000Z</time>
      </trkpt>
      <trkpt lat="48.68786" lon="1.74944">
        <ele>156.19999694824</ele>
        <time>2012-12-25T09:49:03.000Z</time>
      </trkpt>
      <trkpt lat="48.68785" lon="1.74942">
        <ele>156.19999694824</ele>
        <time>2012-12-25T09:49:04.000Z</time>
      </trkpt>
      <trkpt lat="48.68782" lon="1.74934">
        <ele>156.39999389648</ele>
        <time>2012-12-25T09:49:11.000Z</time>
      </trkpt>
      <trkpt lat="48.68777" lon="1.74926">
        <ele>156.39999389648</ele>
        <time>2012-12-25T09:49:23.000Z</time>
      </trkpt>
      <trkpt lat="48.68773" lon="1.74919">
        <ele>156.60000610352</ele>
        <time>2012-12-25T09:49:28.000Z</time>
      </trkpt>
      <trkpt lat="48.6877" lon="1.74912">
        <ele>156.80000305176</ele>
        <time>2012-12-25T09:49:32.000Z</time>
      </trkpt>
      <trkpt lat="48.68767" lon="1.74902">
        <ele>157</ele>
        <time>2012-12-25T09:49:37.000Z</time>
      </trkpt>
      <trkpt lat="48.68763" lon="1.74891">
        <ele>157.19999694824</ele>
        <time>2012-12-25T09:49:44.000Z</time>
      </trkpt>
      <trkpt lat="48.68758" lon="1.74878">
        <ele>157.60000610352</ele>
        <time>2012-12-25T09:49:50.000Z</time>
      </trkpt>
      <trkpt lat="48.68751" lon="1.74864">
        <ele>158.19999694824</ele>
        <time>2012-12-25T09:49:56.000Z</time>
      </trkpt>
      <trkpt lat="48.68746" lon="1.74856">
        <ele>158.80000305176</ele>
        <time>2012-12-25T09:50:03.000Z</time>
      </trkpt>
      <trkpt lat="48.68745" lon="1.74855">
        <ele>158.80000305176</ele>
        <time>2012-12-25T09:50:04.000Z</time>
      </trkpt>
      <trkpt lat="48.68741" lon="1.74849">
        <ele>159.19999694824</ele>
        <time>2012-12-25T09:50:08.000Z</time>
      </trkpt>
      <trkpt lat="48.68734" lon="1.74839">
        <ele>160</ele>
        <time>2012-12-25T09:50:13.000Z</time>
      </trkpt>
      <trkpt lat="48.68728" lon="1.74829">
        <ele>161</ele>
        <time>2012-12-25T09:50:20.000Z</time>
      </trkpt>
      <trkpt lat="48.68724" lon="1.74822">
        <ele>161.60000610352</ele>
        <time>2012-12-25T09:50:24.000Z</time>
      </trkpt>
      <trkpt lat="48.6872" lon="1.74806">
        <ele>162.60000610352</ele>
        <time>2012-12-25T09:50:30.000Z</time>
      </trkpt>
      <trkpt lat="48.68718" lon="1.74796">
        <ele>163</ele>
        <time>2012-12-25T09:50:35.000Z</time>
      </trkpt>
      <trkpt lat="48.68713" lon="1.74788">
        <ele>164</ele>
        <time>2012-12-25T09:50:41.000Z</time>
      </trkpt>
      <trkpt lat="48.68705" lon="1.74777">
        <ele>165</ele>
        <time>2012-12-25T09:50:47.000Z</time>
      </trkpt>
      <trkpt lat="48.68702" lon="1.74772">
        <ele>165.60000610352</ele>
        <time>2012-12-25T09:50:49.000Z</time>
      </trkpt>
      <trkpt lat="48.68699" lon="1.7476">
        <ele>166.39999389648</ele>
        <time>2012-12-25T09:50:53.000Z</time>
      </trkpt>
      <trkpt lat="48.68691" lon="1.74745">
        <ele>167.60000610352</ele>
        <time>2012-12-25T09:50:59.000Z</time>
      </trkpt>
      <trkpt lat="48.6869" lon="1.74744">
        <ele>167.80000305176</ele>
        <time>2012-12-25T09:51:00.000Z</time>
      </trkpt>
      <trkpt lat="48.68687" lon="1.74732">
        <ele>168.19999694824</ele>
        <time>2012-12-25T09:51:06.000Z</time>
      </trkpt>
      <trkpt lat="48.68685" lon="1.74728">
        <ele>168.39999389648</ele>
        <time>2012-12-25T09:51:08.000Z</time>
      </trkpt>
      <trkpt lat="48.68679" lon="1.74713">
        <ele>169</ele>
        <time>2012-12-25T09:51:16.000Z</time>
      </trkpt>
      <trkpt lat="48.68675" lon="1.74704">
        <ele>169.19999694824</ele>
        <time>2012-12-25T09:51:21.000Z</time>
      </trkpt>
      <trkpt lat="48.68667" lon="1.7469">
        <ele>169.80000305176</ele>
        <time>2012-12-25T09:51:30.000Z</time>
      </trkpt>
      <trkpt lat="48.68659" lon="1.74674">
        <ele>169.80000305176</ele>
        <time>2012-12-25T09:51:38.000Z</time>
      </trkpt>
      <trkpt lat="48.68656" lon="1.74668">
        <ele>169.80000305176</ele>
        <time>2012-12-25T09:51:41.000Z</time>
      </trkpt>
      <trkpt lat="48.68651" lon="1.74659">
        <ele>169.60000610352</ele>
        <time>2012-12-25T09:51:46.000Z</time>
      </trkpt>
      <trkpt lat="48.68645" lon="1.74645">
        <ele>169.60000610352</ele>
        <time>2012-12-25T09:51:53.000Z</time>
      </trkpt>
      <trkpt lat="48.68644" lon="1.7464">
        <ele>169.39999389648</ele>
        <time>2012-12-25T09:51:57.000Z</time>
      </trkpt>
      <trkpt lat="48.68636" lon="1.74629">
        <ele>169.19999694824</ele>
        <time>2012-12-25T09:52:03.000Z</time>
      </trkpt>
      <trkpt lat="48.68634" lon="1.74621">
        <ele>169</ele>
        <time>2012-12-25T09:52:07.000Z</time>
      </trkpt>
      <trkpt lat="48.68629" lon="1.7461">
        <ele>168.80000305176</ele>
        <time>2012-12-25T09:52:13.000Z</time>
      </trkpt>
      <trkpt lat="48.68621" lon="1.74595">
        <ele>168.39999389648</ele>
        <time>2012-12-25T09:52:21.000Z</time>
      </trkpt>
      <trkpt lat="48.6862" lon="1.7459">
        <ele>168.39999389648</ele>
        <time>2012-12-25T09:52:23.000Z</time>
      </trkpt>
      <trkpt lat="48.68614" lon="1.74579">
        <ele>167.80000305176</ele>
        <time>2012-12-25T09:52:29.000Z</time>
      </trkpt>
      <trkpt lat="48.68609" lon="1.74567">
        <ele>167</ele>
        <time>2012-12-25T09:52:35.000Z</time>
      </trkpt>
      <trkpt lat="48.68604" lon="1.74556">
        <ele>166.19999694824</ele>
        <time>2012-12-25T09:52:40.000Z</time>
      </trkpt>
      <trkpt lat="48.68597" lon="1.74544">
        <ele>165.19999694824</ele>
        <time>2012-12-25T09:52:46.000Z</time>
      </trkpt>
      <trkpt lat="48.68595" lon="1.74536">
        <ele>164.80000305176</ele>
        <time>2012-12-25T09:52:50.000Z</time>
      </trkpt>
      <trkpt lat="48.6859" lon="1.74531">
        <ele>164.19999694824</ele>
        <time>2012-12-25T09:52:54.000Z</time>
      </trkpt>
      <trkpt lat="48.68585" lon="1.7452">
        <ele>163.19999694824</ele>
        <time>2012-12-25T09:53:00.000Z</time>
      </trkpt>
      <trkpt lat="48.68581" lon="1.74507">
        <ele>162.19999694824</ele>
        <time>2012-12-25T09:53:06.000Z</time>
      </trkpt>
      <trkpt lat="48.68571" lon="1.74489">
        <ele>160</ele>
        <time>2012-12-25T09:53:14.000Z</time>
      </trkpt>
      <trkpt lat="48.68568" lon="1.74485">
        <ele>159.60000610352</ele>
        <time>2012-12-25T09:53:16.000Z</time>
      </trkpt>
      <trkpt lat="48.68565" lon="1.74478">
        <ele>158.80000305176</ele>
        <time>2012-12-25T09:53:20.000Z</time>
      </trkpt>
      <trkpt lat="48.68561" lon="1.74475">
        <ele>158.19999694824</ele>
        <time>2012-12-25T09:53:27.000Z</time>
      </trkpt>
      <trkpt lat="48.68555" lon="1.74476">
        <ele>157.80000305176</ele>
        <time>2012-12-25T09:53:37.000Z</time>
      </trkpt>
      <trkpt lat="48.68546" lon="1.74485">
        <ele>157.60000610352</ele>
        <time>2012-12-25T09:53:42.000Z</time>
      </trkpt>
      <trkpt lat="48.68534" lon="1.74495">
        <ele>157.39999389648</ele>
        <time>2012-12-25T09:53:51.000Z</time>
      </trkpt>
      <trkpt lat="48.68524" lon="1.74507">
        <ele>157.39999389648</ele>
        <time>2012-12-25T09:54:00.000Z</time>
      </trkpt>
      <trkpt lat="48.6851" lon="1.74521">
        <ele>157.60000610352</ele>
        <time>2012-12-25T09:54:11.000Z</time>
      </trkpt>
      <trkpt lat="48.68504" lon="1.74525">
        <ele>157.60000610352</ele>
        <time>2012-12-25T09:54:16.000Z</time>
      </trkpt>
      <trkpt lat="48.68499" lon="1.74531">
        <ele>157.80000305176</ele>
        <time>2012-12-25T09:54:20.000Z</time>
      </trkpt>
      <trkpt lat="48.68491" lon="1.74538">
        <ele>157.80000305176</ele>
        <time>2012-12-25T09:54:27.000Z</time>
      </trkpt>
      <trkpt lat="48.68482" lon="1.74547">
        <ele>158</ele>
        <time>2012-12-25T09:54:35.000Z</time>
      </trkpt>
      <trkpt lat="48.68474" lon="1.74552">
        <ele>157.60000610352</ele>
        <time>2012-12-25T09:54:40.000Z</time>
      </trkpt>
      <trkpt lat="48.68463" lon="1.74562">
        <ele>157.39999389648</ele>
        <time>2012-12-25T09:54:48.000Z</time>
      </trkpt>
      <trkpt lat="48.68453" lon="1.74575">
        <ele>157.19999694824</ele>
        <time>2012-12-25T09:54:57.000Z</time>
      </trkpt>
      <trkpt lat="48.68444" lon="1.74584">
        <ele>156.80000305176</ele>
        <time>2012-12-25T09:55:04.000Z</time>
      </trkpt>
      <trkpt lat="48.68437" lon="1.74595">
        <ele>156.60000610352</ele>
        <time>2012-12-25T09:55:09.000Z</time>
      </trkpt>
      <trkpt lat="48.6843" lon="1.74614">
        <ele>157</ele>
        <time>2012-12-25T09:55:17.000Z</time>
      </trkpt>
      <trkpt lat="48.68425" lon="1.74631">
        <ele>157.60000610352</ele>
        <time>2012-12-25T09:55:25.000Z</time>
      </trkpt>
      <trkpt lat="48.6842" lon="1.74652">
        <ele>158.19999694824</ele>
        <time>2012-12-25T09:55:34.000Z</time>
      </trkpt>
      <trkpt lat="48.68414" lon="1.74669">
        <ele>158.80000305176</ele>
        <time>2012-12-25T09:55:43.000Z</time>
      </trkpt>
      <trkpt lat="48.68409" lon="1.74681">
        <ele>159</ele>
        <time>2012-12-25T09:55:50.000Z</time>
      </trkpt>
      <trkpt lat="48.68409" lon="1.74683">
        <ele>159</ele>
        <time>2012-12-25T09:55:51.000Z</time>
      </trkpt>
      <trkpt lat="48.6841" lon="1.74699">
        <ele>160</ele>
        <time>2012-12-25T09:55:58.000Z</time>
      </trkpt>
      <trkpt lat="48.68409" lon="1.74709">
        <ele>160.39999389648</ele>
        <time>2012-12-25T09:56:03.000Z</time>
      </trkpt>
      <trkpt lat="48.68409" lon="1.74717">
        <ele>160.80000305176</ele>
        <time>2012-12-25T09:56:07.000Z</time>
      </trkpt>
      <trkpt lat="48.6841" lon="1.74735">
        <ele>161.60000610352</ele>
        <time>2012-12-25T09:56:16.000Z</time>
      </trkpt>
      <trkpt lat="48.6841" lon="1.74748">
        <ele>162.19999694824</ele>
        <time>2012-12-25T09:56:22.000Z</time>
      </trkpt>
      <trkpt lat="48.68412" lon="1.74764">
        <ele>162.80000305176</ele>
        <time>2012-12-25T09:56:29.000Z</time>
      </trkpt>
      <trkpt lat="48.68413" lon="1.74777">
        <ele>163.39999389648</ele>
        <time>2012-12-25T09:56:35.000Z</time>
      </trkpt>
      <trkpt lat="48.68415" lon="1.74792">
        <ele>163.80000305176</ele>
        <time>2012-12-25T09:56:41.000Z</time>
      </trkpt>
      <trkpt lat="48.68417" lon="1.74807">
        <ele>164.19999694824</ele>
        <time>2012-12-25T09:56:48.000Z</time>
      </trkpt>
      <trkpt lat="48.68418" lon="1.74819">
        <ele>164.60000610352</ele>
        <time>2012-12-25T09:56:54.000Z</time>
      </trkpt>
      <trkpt lat="48.68418" lon="1.74827">
        <ele>164.80000305176</ele>
        <time>2012-12-25T09:56:58.000Z</time>
      </trkpt>
      <trkpt lat="48.68421" lon="1.74846">
        <ele>165.39999389648</ele>
        <time>2012-12-25T09:57:05.000Z</time>
      </trkpt>
      <trkpt lat="48.68423" lon="1.74858">
        <ele>165.60000610352</ele>
        <time>2012-12-25T09:57:11.000Z</time>
      </trkpt>
      <trkpt lat="48.68424" lon="1.74873">
        <ele>166</ele>
        <time>2012-12-25T09:57:18.000Z</time>
      </trkpt>
      <trkpt lat="48.68427" lon="1.74891">
        <ele>166.60000610352</ele>
        <time>2012-12-25T09:57:25.000Z</time>
      </trkpt>
      <trkpt lat="48.68427" lon="1.74893">
        <ele>166.60000610352</ele>
        <time>2012-12-25T09:57:26.000Z</time>
      </trkpt>
      <trkpt lat="48.6843" lon="1.7491">
        <ele>167</ele>
        <time>2012-12-25T09:57:34.000Z</time>
      </trkpt>
      <trkpt lat="48.68431" lon="1.74912">
        <ele>167.19999694824</ele>
        <time>2012-12-25T09:57:35.000Z</time>
      </trkpt>
      <trkpt lat="48.68434" lon="1.74931">
        <ele>167.39999389648</ele>
        <time>2012-12-25T09:57:44.000Z</time>
      </trkpt>
      <trkpt lat="48.68436" lon="1.74946">
        <ele>167.60000610352</ele>
        <time>2012-12-25T09:57:51.000Z</time>
      </trkpt>
      <trkpt lat="48.68438" lon="1.74962">
        <ele>167.60000610352</ele>
        <time>2012-12-25T09:57:58.000Z</time>
      </trkpt>
      <trkpt lat="48.6844" lon="1.74976">
        <ele>167.80000305176</ele>
        <time>2012-12-25T09:58:05.000Z</time>
      </trkpt>
      <trkpt lat="48.6844" lon="1.74994">
        <ele>167.80000305176</ele>
        <time>2012-12-25T09:58:13.000Z</time>
      </trkpt>
      <trkpt lat="48.68443" lon="1.75009">
        <ele>168</ele>
        <time>2012-12-25T09:58:20.000Z</time>
      </trkpt>
      <trkpt lat="48.68445" lon="1.75023">
        <ele>168</ele>
        <time>2012-12-25T09:58:27.000Z</time>
      </trkpt>
      <trkpt lat="48.68446" lon="1.75033">
        <ele>168.19999694824</ele>
        <time>2012-12-25T09:58:32.000Z</time>
      </trkpt>
      <trkpt lat="48.68446" lon="1.75045">
        <ele>168.19999694824</ele>
        <time>2012-12-25T09:58:37.000Z</time>
      </trkpt>
      <trkpt lat="48.68449" lon="1.75059">
        <ele>168.39999389648</ele>
        <time>2012-12-25T09:58:44.000Z</time>
      </trkpt>
      <trkpt lat="48.6845" lon="1.75078">
        <ele>168.60000610352</ele>
        <time>2012-12-25T09:58:52.000Z</time>
      </trkpt>
      <trkpt lat="48.6845" lon="1.75089">
        <ele>168.80000305176</ele>
        <time>2012-12-25T09:58:58.000Z</time>
      </trkpt>
      <trkpt lat="48.68449" lon="1.75093">
        <ele>168.80000305176</ele>
        <time>2012-12-25T09:59:01.000Z</time>
      </trkpt>
      <trkpt lat="48.6845" lon="1.75104">
        <ele>168.80000305176</ele>
        <time>2012-12-25T09:59:07.000Z</time>
      </trkpt>
      <trkpt lat="48.6845" lon="1.7511">
        <ele>168.80000305176</ele>
        <time>2012-12-25T09:59:09.000Z</time>
      </trkpt>
      <trkpt lat="48.68451" lon="1.75122">
        <ele>169</ele>
        <time>2012-12-25T09:59:16.000Z</time>
      </trkpt>
      <trkpt lat="48.68453" lon="1.75132">
        <ele>169.19999694824</ele>
        <time>2012-12-25T09:59:21.000Z</time>
      </trkpt>
      <trkpt lat="48.68455" lon="1.75142">
        <ele>169.19999694824</ele>
        <time>2012-12-25T09:59:26.000Z</time>
      </trkpt>
      <trkpt lat="48.68459" lon="1.75158">
        <ele>169.39999389648</ele>
        <time>2012-12-25T09:59:33.000Z</time>
      </trkpt>
      <trkpt lat="48.68462" lon="1.75174">
        <ele>169.39999389648</ele>
        <time>2012-12-25T09:59:38.000Z</time>
      </trkpt>
      <trkpt lat="48.68464" lon="1.75193">
        <ele>169.39999389648</ele>
        <time>2012-12-25T09:59:45.000Z</time>
      </trkpt>
      <trkpt lat="48.68466" lon="1.75209">
        <ele>169.39999389648</ele>
        <time>2012-12-25T09:59:51.000Z</time>
      </trkpt>
      <trkpt lat="48.68466" lon="1.7523">
        <ele>169.39999389648</ele>
        <time>2012-12-25T10:00:00.000Z</time>
      </trkpt>
      <trkpt lat="48.68469" lon="1.75243">
        <ele>169.19999694824</ele>
        <time>2012-12-25T10:00:06.000Z</time>
      </trkpt>
      <trkpt lat="48.68471" lon="1.75255">
        <ele>169.19999694824</ele>
        <time>2012-12-25T10:00:12.000Z</time>
      </trkpt>
      <trkpt lat="48.68473" lon="1.75276">
        <ele>169</ele>
        <time>2012-12-25T10:00:21.000Z</time>
      </trkpt>
      <trkpt lat="48.68474" lon="1.75292">
        <ele>168.80000305176</ele>
        <time>2012-12-25T10:00:27.000Z</time>
      </trkpt>
      <trkpt lat="48.68478" lon="1.75312">
        <ele>168.39999389648</ele>
        <time>2012-12-25T10:00:34.000Z</time>
      </trkpt>
      <trkpt lat="48.68478" lon="1.75315">
        <ele>168.39999389648</ele>
        <time>2012-12-25T10:00:35.000Z</time>
      </trkpt>
      <trkpt lat="48.6848" lon="1.75329">
        <ele>168.19999694824</ele>
        <time>2012-12-25T10:00:42.000Z</time>
      </trkpt>
      <trkpt lat="48.68481" lon="1.75332">
        <ele>168.19999694824</ele>
        <time>2012-12-25T10:00:43.000Z</time>
      </trkpt>
      <trkpt lat="48.68484" lon="1.75346">
        <ele>167.39999389648</ele>
        <time>2012-12-25T10:00:49.000Z</time>
      </trkpt>
      <trkpt lat="48.68485" lon="1.7536">
        <ele>166.80000305176</ele>
        <time>2012-12-25T10:00:55.000Z</time>
      </trkpt>
      <trkpt lat="48.68485" lon="1.75367">
        <ele>166.39999389648</ele>
        <time>2012-12-25T10:00:58.000Z</time>
      </trkpt>
      <trkpt lat="48.6849" lon="1.75389">
        <ele>165.39999389648</ele>
        <time>2012-12-25T10:01:06.000Z</time>
      </trkpt>
      <trkpt lat="48.68492" lon="1.75403">
        <ele>164.60000610352</ele>
        <time>2012-12-25T10:01:12.000Z</time>
      </trkpt>
      <trkpt lat="48.68493" lon="1.75417">
        <ele>164</ele>
        <time>2012-12-25T10:01:18.000Z</time>
      </trkpt>
      <trkpt lat="48.68495" lon="1.75432">
        <ele>163</ele>
        <time>2012-12-25T10:01:24.000Z</time>
      </trkpt>
      <trkpt lat="48.68497" lon="1.75452">
        <ele>161.80000305176</ele>
        <time>2012-12-25T10:01:33.000Z</time>
      </trkpt>
      <trkpt lat="48.68499" lon="1.7547">
        <ele>160.80000305176</ele>
        <time>2012-12-25T10:01:40.000Z</time>
      </trkpt>
      <trkpt lat="48.68501" lon="1.75487">
        <ele>159.60000610352</ele>
        <time>2012-12-25T10:01:47.000Z</time>
      </trkpt>
      <trkpt lat="48.68502" lon="1.755">
        <ele>158.80000305176</ele>
        <time>2012-12-25T10:01:52.000Z</time>
      </trkpt>
      <trkpt lat="48.68503" lon="1.75513">
        <ele>158.39999389648</ele>
        <time>2012-12-25T10:01:57.000Z</time>
      </trkpt>
      <trkpt lat="48.68504" lon="1.75523">
        <ele>157.80000305176</ele>
        <time>2012-12-25T10:02:01.000Z</time>
      </trkpt>
      <trkpt lat="48.68508" lon="1.75532">
        <ele>157.39999389648</ele>
        <time>2012-12-25T10:02:06.000Z</time>
      </trkpt>
      <trkpt lat="48.68513" lon="1.75534">
        <ele>157.60000610352</ele>
        <time>2012-12-25T10:02:12.000Z</time>
      </trkpt>
      <trkpt lat="48.68519" lon="1.75532">
        <ele>157.80000305176</ele>
        <time>2012-12-25T10:02:18.000Z</time>
      </trkpt>
      <trkpt lat="48.68527" lon="1.75528">
        <ele>158</ele>
        <time>2012-12-25T10:02:24.000Z</time>
      </trkpt>
      <trkpt lat="48.68535" lon="1.75523">
        <ele>158.19999694824</ele>
        <time>2012-12-25T10:02:30.000Z</time>
      </trkpt>
      <trkpt lat="48.68545" lon="1.75519">
        <ele>158.39999389648</ele>
        <time>2012-12-25T10:02:36.000Z</time>
      </trkpt>
      <trkpt lat="48.68557" lon="1.75514">
        <ele>158.60000610352</ele>
        <time>2012-12-25T10:02:41.000Z</time>
      </trkpt>
      <trkpt lat="48.68579" lon="1.75502">
        <ele>158.80000305176</ele>
        <time>2012-12-25T10:02:48.000Z</time>
      </trkpt>
      <trkpt lat="48.68594" lon="1.75494">
        <ele>159</ele>
        <time>2012-12-25T10:02:53.000Z</time>
      </trkpt>
      <trkpt lat="48.68613" lon="1.75483">
        <ele>159.19999694824</ele>
        <time>2012-12-25T10:02:59.000Z</time>
      </trkpt>
      <trkpt lat="48.68632" lon="1.75474">
        <ele>159</ele>
        <time>2012-12-25T10:03:05.000Z</time>
      </trkpt>
      <trkpt lat="48.68655" lon="1.7546">
        <ele>158.60000610352</ele>
        <time>2012-12-25T10:03:12.000Z</time>
      </trkpt>
      <trkpt lat="48.68672" lon="1.75451">
        <ele>158.19999694824</ele>
        <time>2012-12-25T10:03:17.000Z</time>
      </trkpt>
      <trkpt lat="48.68688" lon="1.75442">
        <ele>157.80000305176</ele>
        <time>2012-12-25T10:03:22.000Z</time>
      </trkpt>
      <trkpt lat="48.68706" lon="1.75432">
        <ele>157.39999389648</ele>
        <time>2012-12-25T10:03:28.000Z</time>
      </trkpt>
      <trkpt lat="48.68723" lon="1.75423">
        <ele>157</ele>
        <time>2012-12-25T10:03:34.000Z</time>
      </trkpt>
      <trkpt lat="48.68735" lon="1.75418">
        <ele>157</ele>
        <time>2012-12-25T10:03:38.000Z</time>
      </trkpt>
      <trkpt lat="48.6875" lon="1.75407">
        <ele>156.60000610352</ele>
        <time>2012-12-25T10:03:44.000Z</time>
      </trkpt>
      <trkpt lat="48.6877" lon="1.75394">
        <ele>156.60000610352</ele>
        <time>2012-12-25T10:03:51.000Z</time>
      </trkpt>
      <trkpt lat="48.68798" lon="1.75379">
        <ele>156.19999694824</ele>
        <time>2012-12-25T10:03:59.000Z</time>
      </trkpt>
      <trkpt lat="48.68817" lon="1.75366">
        <ele>156</ele>
        <time>2012-12-25T10:04:05.000Z</time>
      </trkpt>
      <trkpt lat="48.68835" lon="1.75359">
        <ele>155.80000305176</ele>
        <time>2012-12-25T10:04:10.000Z</time>
      </trkpt>
      <trkpt lat="48.68848" lon="1.75351">
        <ele>155.39999389648</ele>
        <time>2012-12-25T10:04:15.000Z</time>
      </trkpt>
      <trkpt lat="48.68866" lon="1.75342">
        <ele>154.80000305176</ele>
        <time>2012-12-25T10:04:21.000Z</time>
      </trkpt>
      <trkpt lat="48.68889" lon="1.75329">
        <ele>154.19999694824</ele>
        <time>2012-12-25T10:04:28.000Z</time>
      </trkpt>
      <trkpt lat="48.68914" lon="1.75315">
        <ele>153.80000305176</ele>
        <time>2012-12-25T10:04:36.000Z</time>
      </trkpt>
      <trkpt lat="48.68926" lon="1.75309">
        <ele>153.80000305176</ele>
        <time>2012-12-25T10:04:41.000Z</time>
      </trkpt>
      <trkpt lat="48.68942" lon="1.753">
        <ele>154.39999389648</ele>
        <time>2012-12-25T10:04:47.000Z</time>
      </trkpt>
      <trkpt lat="48.68953" lon="1.7529">
        <ele>154.39999389648</ele>
        <time>2012-12-25T10:04:51.000Z</time>
      </trkpt>
      <trkpt lat="48.68961" lon="1.75276">
        <ele>154.39999389648</ele>
        <time>2012-12-25T10:04:55.000Z</time>
      </trkpt>
      <trkpt lat="48.68964" lon="1.75279">
        <ele>154.60000610352</ele>
        <time>2012-12-25T10:05:00.000Z</time>
      </trkpt>
      <trkpt lat="48.68965" lon="1.75283">
        <ele>154.60000610352</ele>
        <time>2012-12-25T10:05:02.000Z</time>
      </trkpt>
      <trkpt lat="48.68971" lon="1.75285">
        <ele>154.80000305176</ele>
        <time>2012-12-25T10:05:08.000Z</time>
      </trkpt>
      <trkpt lat="48.68972" lon="1.75281">
        <ele>154.80000305176</ele>
        <time>2012-12-25T10:05:13.000Z</time>
      </trkpt>
      <trkpt lat="48.68978" lon="1.75281">
        <ele>155</ele>
        <time>2012-12-25T10:05:26.000Z</time>
      </trkpt>
      <trkpt lat="48.68991" lon="1.75273">
        <ele>155.19999694824</ele>
        <time>2012-12-25T10:05:32.000Z</time>
      </trkpt>
      <trkpt lat="48.68995" lon="1.75272">
        <ele>155.19999694824</ele>
        <time>2012-12-25T10:05:35.000Z</time>
      </trkpt>
      <trkpt lat="48.68998" lon="1.75268">
        <ele>155.19999694824</ele>
        <time>2012-12-25T10:05:40.000Z</time>
      </trkpt>
      <trkpt lat="48.6901" lon="1.75264">
        <ele>155.60000610352</ele>
        <time>2012-12-25T10:05:47.000Z</time>
      </trkpt>
      <trkpt lat="48.69021" lon="1.75258">
        <ele>156</ele>
        <time>2012-12-25T10:05:53.000Z</time>
      </trkpt>
      <trkpt lat="48.69031" lon="1.75255">
        <ele>156.39999389648</ele>
        <time>2012-12-25T10:05:59.000Z</time>
      </trkpt>
      <trkpt lat="48.6904" lon="1.75251">
        <ele>156.80000305176</ele>
        <time>2012-12-25T10:06:05.000Z</time>
      </trkpt>
      <trkpt lat="48.69054" lon="1.75246">
        <ele>157.39999389648</ele>
        <time>2012-12-25T10:06:12.000Z</time>
      </trkpt>
      <trkpt lat="48.69064" lon="1.75241">
        <ele>157.80000305176</ele>
        <time>2012-12-25T10:06:19.000Z</time>
      </trkpt>
      <trkpt lat="48.69073" lon="1.75236">
        <ele>158.19999694824</ele>
        <time>2012-12-25T10:06:25.000Z</time>
      </trkpt>
      <trkpt lat="48.69085" lon="1.75229">
        <ele>158.80000305176</ele>
        <time>2012-12-25T10:06:32.000Z</time>
      </trkpt>
      <trkpt lat="48.69096" lon="1.75226">
        <ele>160</ele>
        <time>2012-12-25T10:06:38.000Z</time>
      </trkpt>
      <trkpt lat="48.69102" lon="1.75223">
        <ele>160.80000305176</ele>
        <time>2012-12-25T10:06:43.000Z</time>
      </trkpt>
      <trkpt lat="48.69112" lon="1.75217">
        <ele>161.80000305176</ele>
        <time>2012-12-25T10:06:48.000Z</time>
      </trkpt>
      <trkpt lat="48.69124" lon="1.7521">
        <ele>163.39999389648</ele>
        <time>2012-12-25T10:06:56.000Z</time>
      </trkpt>
      <trkpt lat="48.69133" lon="1.75207">
        <ele>164.39999389648</ele>
        <time>2012-12-25T10:07:01.000Z</time>
      </trkpt>
      <trkpt lat="48.69147" lon="1.75201">
        <ele>166.19999694824</ele>
        <time>2012-12-25T10:07:08.000Z</time>
      </trkpt>
      <trkpt lat="48.69159" lon="1.75196">
        <ele>167.60000610352</ele>
        <time>2012-12-25T10:07:15.000Z</time>
      </trkpt>
      <trkpt lat="48.69167" lon="1.75189">
        <ele>168.60000610352</ele>
        <time>2012-12-25T10:07:22.000Z</time>
      </trkpt>
      <trkpt lat="48.69174" lon="1.75186">
        <ele>169</ele>
        <time>2012-12-25T10:07:27.000Z</time>
      </trkpt>
      <trkpt lat="48.69187" lon="1.75181">
        <ele>169.39999389648</ele>
        <time>2012-12-25T10:07:34.000Z</time>
      </trkpt>
      <trkpt lat="48.69195" lon="1.75178">
        <ele>169.80000305176</ele>
        <time>2012-12-25T10:07:39.000Z</time>
      </trkpt>
      <trkpt lat="48.69205" lon="1.75174">
        <ele>170.19999694824</ele>
        <time>2012-12-25T10:07:46.000Z</time>
      </trkpt>
      <trkpt lat="48.69214" lon="1.75169">
        <ele>170.60000610352</ele>
        <time>2012-12-25T10:07:52.000Z</time>
      </trkpt>
      <trkpt lat="48.69226" lon="1.75164">
        <ele>171</ele>
        <time>2012-12-25T10:07:59.000Z</time>
      </trkpt>
      <trkpt lat="48.69237" lon="1.7516">
        <ele>171.19999694824</ele>
        <time>2012-12-25T10:08:06.000Z</time>
      </trkpt>
      <trkpt lat="48.69246" lon="1.75154">
        <ele>171.39999389648</ele>
        <time>2012-12-25T10:08:12.000Z</time>
      </trkpt>
      <trkpt lat="48.69257" lon="1.75149">
        <ele>171</ele>
        <time>2012-12-25T10:08:20.000Z</time>
      </trkpt>
      <trkpt lat="48.69268" lon="1.75142">
        <ele>170</ele>
        <time>2012-12-25T10:08:27.000Z</time>
      </trkpt>
      <trkpt lat="48.69276" lon="1.7514">
        <ele>169.39999389648</ele>
        <time>2012-12-25T10:08:34.000Z</time>
      </trkpt>
      <trkpt lat="48.69288" lon="1.75136">
        <ele>168.39999389648</ele>
        <time>2012-12-25T10:08:41.000Z</time>
      </trkpt>
      <trkpt lat="48.69301" lon="1.7513">
        <ele>167.60000610352</ele>
        <time>2012-12-25T10:08:48.000Z</time>
      </trkpt>
      <trkpt lat="48.69304" lon="1.75128">
        <ele>167.39999389648</ele>
        <time>2012-12-25T10:08:50.000Z</time>
      </trkpt>
      <trkpt lat="48.69318" lon="1.75121">
        <ele>166.39999389648</ele>
        <time>2012-12-25T10:08:58.000Z</time>
      </trkpt>
      <trkpt lat="48.69327" lon="1.75115">
        <ele>166</ele>
        <time>2012-12-25T10:09:05.000Z</time>
      </trkpt>
      <trkpt lat="48.69336" lon="1.75109">
        <ele>165.60000610352</ele>
        <time>2012-12-25T10:09:12.000Z</time>
      </trkpt>
      <trkpt lat="48.69346" lon="1.75103">
        <ele>166</ele>
        <time>2012-12-25T10:09:18.000Z</time>
      </trkpt>
      <trkpt lat="48.69355" lon="1.75096">
        <ele>166.19999694824</ele>
        <time>2012-12-25T10:09:24.000Z</time>
      </trkpt>
      <trkpt lat="48.69365" lon="1.75092">
        <ele>166.39999389648</ele>
        <time>2012-12-25T10:09:29.000Z</time>
      </trkpt>
      <trkpt lat="48.69374" lon="1.7509">
        <ele>166.80000305176</ele>
        <time>2012-12-25T10:09:36.000Z</time>
      </trkpt>
      <trkpt lat="48.69375" lon="1.7509">
        <ele>166.80000305176</ele>
        <time>2012-12-25T10:09:37.000Z</time>
      </trkpt>
      <trkpt lat="48.69385" lon="1.75084">
        <ele>167.19999694824</ele>
        <time>2012-12-25T10:09:44.000Z</time>
      </trkpt>
      <trkpt lat="48.69395" lon="1.75081">
        <ele>167.39999389648</ele>
        <time>2012-12-25T10:09:50.000Z</time>
      </trkpt>
      <trkpt lat="48.69401" lon="1.75076">
        <ele>167.60000610352</ele>
        <time>2012-12-25T10:09:56.000Z</time>
      </trkpt>
      <trkpt lat="48.69409" lon="1.75075">
        <ele>167.80000305176</ele>
        <time>2012-12-25T10:10:02.000Z</time>
      </trkpt>
      <trkpt lat="48.69424" lon="1.75069">
        <ele>167.80000305176</ele>
        <time>2012-12-25T10:10:09.000Z</time>
      </trkpt>
      <trkpt lat="48.69435" lon="1.75064">
        <ele>167.60000610352</ele>
        <time>2012-12-25T10:10:15.000Z</time>
      </trkpt>
      <trkpt lat="48.69446" lon="1.75058">
        <ele>167.39999389648</ele>
        <time>2012-12-25T10:10:22.000Z</time>
      </trkpt>
      <trkpt lat="48.6946" lon="1.75051">
        <ele>167.19999694824</ele>
        <time>2012-12-25T10:10:30.000Z</time>
      </trkpt>
      <trkpt lat="48.69469" lon="1.75046">
        <ele>167.19999694824</ele>
        <time>2012-12-25T10:10:37.000Z</time>
      </trkpt>
      <trkpt lat="48.69473" lon="1.75043">
        <ele>167.19999694824</ele>
        <time>2012-12-25T10:10:40.000Z</time>
      </trkpt>
      <trkpt lat="48.69487" lon="1.7504">
        <ele>167</ele>
        <time>2012-12-25T10:10:49.000Z</time>
      </trkpt>
      <trkpt lat="48.69499" lon="1.75035">
        <ele>167</ele>
        <time>2012-12-25T10:10:56.000Z</time>
      </trkpt>
      <trkpt lat="48.69508" lon="1.7503">
        <ele>166.39999389648</ele>
        <time>2012-12-25T10:11:02.000Z</time>
      </trkpt>
      <trkpt lat="48.69516" lon="1.75024">
        <ele>165.80000305176</ele>
        <time>2012-12-25T10:11:09.000Z</time>
      </trkpt>
      <trkpt lat="48.69533" lon="1.75016">
        <ele>164</ele>
        <time>2012-12-25T10:11:18.000Z</time>
      </trkpt>
      <trkpt lat="48.69548" lon="1.7501">
        <ele>162.60000610352</ele>
        <time>2012-12-25T10:11:26.000Z</time>
      </trkpt>
      <trkpt lat="48.69556" lon="1.75007">
        <ele>161.80000305176</ele>
        <time>2012-12-25T10:11:31.000Z</time>
      </trkpt>
      <trkpt lat="48.69562" lon="1.75004">
        <ele>161.19999694824</ele>
        <time>2012-12-25T10:11:35.000Z</time>
      </trkpt>
      <trkpt lat="48.69574" lon="1.74999">
        <ele>160</ele>
        <time>2012-12-25T10:11:41.000Z</time>
      </trkpt>
      <trkpt lat="48.69578" lon="1.74997">
        <ele>159.39999389648</ele>
        <time>2012-12-25T10:11:44.000Z</time>
      </trkpt>
      <trkpt lat="48.69588" lon="1.74992">
        <ele>159</ele>
        <time>2012-12-25T10:11:50.000Z</time>
      </trkpt>
      <trkpt lat="48.69599" lon="1.74987">
        <ele>159.39999389648</ele>
        <time>2012-12-25T10:11:57.000Z</time>
      </trkpt>
      <trkpt lat="48.69608" lon="1.74981">
        <ele>159.80000305176</ele>
        <time>2012-12-25T10:12:04.000Z</time>
      </trkpt>
      <trkpt lat="48.6962" lon="1.74976">
        <ele>160.39999389648</ele>
        <time>2012-12-25T10:12:11.000Z</time>
      </trkpt>
      <trkpt lat="48.6963" lon="1.74971">
        <ele>160.80000305176</ele>
        <time>2012-12-25T10:12:17.000Z</time>
      </trkpt>
      <trkpt lat="48.69639" lon="1.74967">
        <ele>161.19999694824</ele>
        <time>2012-12-25T10:12:23.000Z</time>
      </trkpt>
      <trkpt lat="48.69649" lon="1.74961">
        <ele>161.60000610352</ele>
        <time>2012-12-25T10:12:29.000Z</time>
      </trkpt>
      <trkpt lat="48.69663" lon="1.74955">
        <ele>162.19999694824</ele>
        <time>2012-12-25T10:12:37.000Z</time>
      </trkpt>
      <trkpt lat="48.69677" lon="1.74948">
        <ele>162.80000305176</ele>
        <time>2012-12-25T10:12:45.000Z</time>
      </trkpt>
      <trkpt lat="48.6969" lon="1.74942">
        <ele>163.19999694824</ele>
        <time>2012-12-25T10:12:53.000Z</time>
      </trkpt>
      <trkpt lat="48.69699" lon="1.74937">
        <ele>163.60000610352</ele>
        <time>2012-12-25T10:13:00.000Z</time>
      </trkpt>
      <trkpt lat="48.69707" lon="1.74932">
        <ele>164</ele>
        <time>2012-12-25T10:13:06.000Z</time>
      </trkpt>
      <trkpt lat="48.6972" lon="1.74929">
        <ele>164.60000610352</ele>
        <time>2012-12-25T10:13:13.000Z</time>
      </trkpt>
      <trkpt lat="48.69734" lon="1.74924">
        <ele>165.19999694824</ele>
        <time>2012-12-25T10:13:20.000Z</time>
      </trkpt>
      <trkpt lat="48.69742" lon="1.7492">
        <ele>165.60000610352</ele>
        <time>2012-12-25T10:13:25.000Z</time>
      </trkpt>
      <trkpt lat="48.6975" lon="1.74915">
        <ele>165.80000305176</ele>
        <time>2012-12-25T10:13:31.000Z</time>
      </trkpt>
      <trkpt lat="48.69751" lon="1.74914">
        <ele>165.80000305176</ele>
        <time>2012-12-25T10:13:32.000Z</time>
      </trkpt>
      <trkpt lat="48.69761" lon="1.74907">
        <ele>166</ele>
        <time>2012-12-25T10:13:40.000Z</time>
      </trkpt>
      <trkpt lat="48.6977" lon="1.74903">
        <ele>166.19999694824</ele>
        <time>2012-12-25T10:13:46.000Z</time>
      </trkpt>
      <trkpt lat="48.69781" lon="1.74898">
        <ele>166.39999389648</ele>
        <time>2012-12-25T10:13:55.000Z</time>
      </trkpt>
      <trkpt lat="48.69794" lon="1.74894">
        <ele>166.80000305176</ele>
        <time>2012-12-25T10:14:03.000Z</time>
      </trkpt>
      <trkpt lat="48.69805" lon="1.74892">
        <ele>167.19999694824</ele>
        <time>2012-12-25T10:14:08.000Z</time>
      </trkpt>
      <trkpt lat="48.69806" lon="1.74891">
        <ele>167.19999694824</ele>
        <time>2012-12-25T10:14:09.000Z</time>
      </trkpt>
      <trkpt lat="48.69813" lon="1.74886">
        <ele>167.80000305176</ele>
        <time>2012-12-25T10:14:15.000Z</time>
      </trkpt>
      <trkpt lat="48.69816" lon="1.74884">
        <ele>167.80000305176</ele>
        <time>2012-12-25T10:14:17.000Z</time>
      </trkpt>
      <trkpt lat="48.69826" lon="1.74879">
        <ele>168.39999389648</ele>
        <time>2012-12-25T10:14:23.000Z</time>
      </trkpt>
      <trkpt lat="48.69828" lon="1.74877">
        <ele>168.60000610352</ele>
        <time>2012-12-25T10:14:25.000Z</time>
      </trkpt>
      <trkpt lat="48.6984" lon="1.74871">
        <ele>169.19999694824</ele>
        <time>2012-12-25T10:14:33.000Z</time>
      </trkpt>
      <trkpt lat="48.69851" lon="1.74864">
        <ele>169.60000610352</ele>
        <time>2012-12-25T10:14:39.000Z</time>
      </trkpt>
      <trkpt lat="48.69857" lon="1.74861">
        <ele>169.80000305176</ele>
        <time>2012-12-25T10:14:44.000Z</time>
      </trkpt>
      <trkpt lat="48.69859" lon="1.7486">
        <ele>169.80000305176</ele>
        <time>2012-12-25T10:14:45.000Z</time>
      </trkpt>
      <trkpt lat="48.69872" lon="1.74853">
        <ele>170.19999694824</ele>
        <time>2012-12-25T10:14:54.000Z</time>
      </trkpt>
      <trkpt lat="48.69882" lon="1.74847">
        <ele>170.19999694824</ele>
        <time>2012-12-25T10:15:03.000Z</time>
      </trkpt>
      <trkpt lat="48.69892" lon="1.74842">
        <ele>170.19999694824</ele>
        <time>2012-12-25T10:15:10.000Z</time>
      </trkpt>
      <trkpt lat="48.69904" lon="1.7484">
        <ele>170.19999694824</ele>
        <time>2012-12-25T10:15:18.000Z</time>
      </trkpt>
      <trkpt lat="48.6991" lon="1.74834">
        <ele>170</ele>
        <time>2012-12-25T10:15:24.000Z</time>
      </trkpt>
      <trkpt lat="48.69918" lon="1.74832">
        <ele>170</ele>
        <time>2012-12-25T10:15:30.000Z</time>
      </trkpt>
      <trkpt lat="48.69935" lon="1.74826">
        <ele>170.19999694824</ele>
        <time>2012-12-25T10:15:41.000Z</time>
      </trkpt>
      <trkpt lat="48.69948" lon="1.7482">
        <ele>170.19999694824</ele>
        <time>2012-12-25T10:15:50.000Z</time>
      </trkpt>
      <trkpt lat="48.69959" lon="1.74814">
        <ele>170.19999694824</ele>
        <time>2012-12-25T10:15:59.000Z</time>
      </trkpt>
      <trkpt lat="48.6997" lon="1.7481">
        <ele>170.19999694824</ele>
        <time>2012-12-25T10:16:07.000Z</time>
      </trkpt>
      <trkpt lat="48.69982" lon="1.74806">
        <ele>170</ele>
        <time>2012-12-25T10:16:14.000Z</time>
      </trkpt>
      <trkpt lat="48.69992" lon="1.748">
        <ele>169.80000305176</ele>
        <time>2012-12-25T10:16:21.000Z</time>
      </trkpt>
      <trkpt lat="48.70003" lon="1.74792">
        <ele>169.60000610352</ele>
        <time>2012-12-25T10:16:29.000Z</time>
      </trkpt>
      <trkpt lat="48.70013" lon="1.74787">
        <ele>170</ele>
        <time>2012-12-25T10:16:36.000Z</time>
      </trkpt>
      <trkpt lat="48.70031" lon="1.74781">
        <ele>170.80000305176</ele>
        <time>2012-12-25T10:16:47.000Z</time>
      </trkpt>
      <trkpt lat="48.70038" lon="1.74776">
        <ele>171.19999694824</ele>
        <time>2012-12-25T10:16:52.000Z</time>
      </trkpt>
      <trkpt lat="48.70047" lon="1.74774">
        <ele>171.60000610352</ele>
        <time>2012-12-25T10:16:57.000Z</time>
      </trkpt>
      <trkpt lat="48.70054" lon="1.74772">
        <ele>172</ele>
        <time>2012-12-25T10:17:02.000Z</time>
      </trkpt>
      <trkpt lat="48.70061" lon="1.74769">
        <ele>172.39999389648</ele>
        <time>2012-12-25T10:17:06.000Z</time>
      </trkpt>
      <trkpt lat="48.70076" lon="1.74763">
        <ele>173.39999389648</ele>
        <time>2012-12-25T10:17:15.000Z</time>
      </trkpt>
      <trkpt lat="48.7008" lon="1.7476">
        <ele>173.60000610352</ele>
        <time>2012-12-25T10:17:18.000Z</time>
      </trkpt>
      <trkpt lat="48.70086" lon="1.74757">
        <ele>174</ele>
        <time>2012-12-25T10:17:22.000Z</time>
      </trkpt>
      <trkpt lat="48.70097" lon="1.74751">
        <ele>174.39999389648</ele>
        <time>2012-12-25T10:17:30.000Z</time>
      </trkpt>
      <trkpt lat="48.70107" lon="1.74747">
        <ele>174.60000610352</ele>
        <time>2012-12-25T10:17:37.000Z</time>
      </trkpt>
      <trkpt lat="48.70116" lon="1.74742">
        <ele>174.80000305176</ele>
        <time>2012-12-25T10:17:45.000Z</time>
      </trkpt>
      <trkpt lat="48.70117" lon="1.74741">
        <ele>174.80000305176</ele>
        <time>2012-12-25T10:17:47.000Z</time>
      </trkpt>
      <trkpt lat="48.70121" lon="1.74739">
        <ele>175</ele>
        <time>2012-12-25T10:17:51.000Z</time>
      </trkpt>
      <trkpt lat="48.70128" lon="1.74737">
        <ele>175</ele>
        <time>2012-12-25T10:17:56.000Z</time>
      </trkpt>
      <trkpt lat="48.70138" lon="1.74735">
        <ele>175.39999389648</ele>
        <time>2012-12-25T10:18:01.000Z</time>
      </trkpt>
      <trkpt lat="48.70149" lon="1.74731">
        <ele>175.39999389648</ele>
        <time>2012-12-25T10:18:08.000Z</time>
      </trkpt>
      <trkpt lat="48.70159" lon="1.74724">
        <ele>175.39999389648</ele>
        <time>2012-12-25T10:18:15.000Z</time>
      </trkpt>
      <trkpt lat="48.70169" lon="1.74718">
        <ele>175.19999694824</ele>
        <time>2012-12-25T10:18:21.000Z</time>
      </trkpt>
      <trkpt lat="48.70171" lon="1.74716">
        <ele>175</ele>
        <time>2012-12-25T10:18:23.000Z</time>
      </trkpt>
      <trkpt lat="48.70177" lon="1.74712">
        <ele>174.39999389648</ele>
        <time>2012-12-25T10:18:28.000Z</time>
      </trkpt>
      <trkpt lat="48.70187" lon="1.74709">
        <ele>173.60000610352</ele>
        <time>2012-12-25T10:18:35.000Z</time>
      </trkpt>
      <trkpt lat="48.70196" lon="1.74703">
        <ele>172.80000305176</ele>
        <time>2012-12-25T10:18:42.000Z</time>
      </trkpt>
      <trkpt lat="48.70205" lon="1.74699">
        <ele>172</ele>
        <time>2012-12-25T10:18:49.000Z</time>
      </trkpt>
      <trkpt lat="48.70217" lon="1.74694">
        <ele>171</ele>
        <time>2012-12-25T10:18:57.000Z</time>
      </trkpt>
      <trkpt lat="48.70229" lon="1.7469">
        <ele>170</ele>
        <time>2012-12-25T10:19:04.000Z</time>
      </trkpt>
      <trkpt lat="48.7023" lon="1.74689">
        <ele>170</ele>
        <time>2012-12-25T10:19:05.000Z</time>
      </trkpt>
      <trkpt lat="48.70245" lon="1.74684">
        <ele>168.80000305176</ele>
        <time>2012-12-25T10:19:14.000Z</time>
      </trkpt>
      <trkpt lat="48.70253" lon="1.74679">
        <ele>168.39999389648</ele>
        <time>2012-12-25T10:19:20.000Z</time>
      </trkpt>
      <trkpt lat="48.7026" lon="1.74676">
        <ele>168.19999694824</ele>
        <time>2012-12-25T10:19:26.000Z</time>
      </trkpt>
      <trkpt lat="48.7027" lon="1.7467">
        <ele>168.19999694824</ele>
        <time>2012-12-25T10:19:31.000Z</time>
      </trkpt>
      <trkpt lat="48.70281" lon="1.74665">
        <ele>168.39999389648</ele>
        <time>2012-12-25T10:19:37.000Z</time>
      </trkpt>
      <trkpt lat="48.70288" lon="1.74661">
        <ele>168.60000610352</ele>
        <time>2012-12-25T10:19:44.000Z</time>
      </trkpt>
      <trkpt lat="48.70297" lon="1.74658">
        <ele>168.80000305176</ele>
        <time>2012-12-25T10:19:51.000Z</time>
      </trkpt>
      <trkpt lat="48.70315" lon="1.7465">
        <ele>169.39999389648</ele>
        <time>2012-12-25T10:19:59.000Z</time>
      </trkpt>
      <trkpt lat="48.70324" lon="1.74644">
        <ele>169.80000305176</ele>
        <time>2012-12-25T10:20:05.000Z</time>
      </trkpt>
      <trkpt lat="48.70338" lon="1.74637">
        <ele>170.80000305176</ele>
        <time>2012-12-25T10:20:15.000Z</time>
      </trkpt>
      <trkpt lat="48.70352" lon="1.7463">
        <ele>172.19999694824</ele>
        <time>2012-12-25T10:20:26.000Z</time>
      </trkpt>
      <trkpt lat="48.70363" lon="1.74626">
        <ele>173.19999694824</ele>
        <time>2012-12-25T10:20:34.000Z</time>
      </trkpt>
      <trkpt lat="48.70375" lon="1.74624">
        <ele>174.19999694824</ele>
        <time>2012-12-25T10:20:43.000Z</time>
      </trkpt>
      <trkpt lat="48.70384" lon="1.74619">
        <ele>175</ele>
        <time>2012-12-25T10:20:50.000Z</time>
      </trkpt>
      <trkpt lat="48.70388" lon="1.74616">
        <ele>175.39999389648</ele>
        <time>2012-12-25T10:20:54.000Z</time>
      </trkpt>
      <trkpt lat="48.70399" lon="1.74611">
        <ele>176.19999694824</ele>
        <time>2012-12-25T10:21:02.000Z</time>
      </trkpt>
      <trkpt lat="48.70408" lon="1.74606">
        <ele>177</ele>
        <time>2012-12-25T10:21:10.000Z</time>
      </trkpt>
      <trkpt lat="48.7042" lon="1.74602">
        <ele>177.80000305176</ele>
        <time>2012-12-25T10:21:18.000Z</time>
      </trkpt>
      <trkpt lat="48.70428" lon="1.746">
        <ele>178.19999694824</ele>
        <time>2012-12-25T10:21:24.000Z</time>
      </trkpt>
      <trkpt lat="48.70438" lon="1.74595">
        <ele>178.80000305176</ele>
        <time>2012-12-25T10:21:32.000Z</time>
      </trkpt>
      <trkpt lat="48.70445" lon="1.7459">
        <ele>179.19999694824</ele>
        <time>2012-12-25T10:21:38.000Z</time>
      </trkpt>
      <trkpt lat="48.70455" lon="1.74587">
        <ele>179.80000305176</ele>
        <time>2012-12-25T10:21:45.000Z</time>
      </trkpt>
      <trkpt lat="48.70458" lon="1.74585">
        <ele>179.80000305176</ele>
        <time>2012-12-25T10:21:47.000Z</time>
      </trkpt>
      <trkpt lat="48.70473" lon="1.74579">
        <ele>180.60000610352</ele>
        <time>2012-12-25T10:21:57.000Z</time>
      </trkpt>
      <trkpt lat="48.70474" lon="1.74578">
        <ele>180.60000610352</ele>
        <time>2012-12-25T10:21:58.000Z</time>
      </trkpt>
      <trkpt lat="48.70481" lon="1.74571">
        <ele>181</ele>
        <time>2012-12-25T10:22:04.000Z</time>
      </trkpt>
      <trkpt lat="48.70485" lon="1.74565">
        <ele>181.19999694824</ele>
        <time>2012-12-25T10:22:09.000Z</time>
      </trkpt>
      <trkpt lat="48.7049" lon="1.74561">
        <ele>181.39999389648</ele>
        <time>2012-12-25T10:22:14.000Z</time>
      </trkpt>
      <trkpt lat="48.70497" lon="1.74557">
        <ele>181.80000305176</ele>
        <time>2012-12-25T10:22:20.000Z</time>
      </trkpt>
      <trkpt lat="48.70504" lon="1.74555">
        <ele>182</ele>
        <time>2012-12-25T10:22:26.000Z</time>
      </trkpt>
      <trkpt lat="48.70517" lon="1.74554">
        <ele>182.39999389648</ele>
        <time>2012-12-25T10:22:36.000Z</time>
      </trkpt>
      <trkpt lat="48.70524" lon="1.74549">
        <ele>182.60000610352</ele>
        <time>2012-12-25T10:22:43.000Z</time>
      </trkpt>
      <trkpt lat="48.70533" lon="1.74547">
        <ele>182.80000305176</ele>
        <time>2012-12-25T10:22:49.000Z</time>
      </trkpt>
      <trkpt lat="48.70545" lon="1.74543">
        <ele>183.19999694824</ele>
        <time>2012-12-25T10:22:54.000Z</time>
      </trkpt>
      <trkpt lat="48.70552" lon="1.7454">
        <ele>183.39999389648</ele>
        <time>2012-12-25T10:22:59.000Z</time>
      </trkpt>
      <trkpt lat="48.70558" lon="1.74536">
        <ele>183.80000305176</ele>
        <time>2012-12-25T10:23:04.000Z</time>
      </trkpt>
      <trkpt lat="48.70569" lon="1.74533">
        <ele>184</ele>
        <time>2012-12-25T10:23:11.000Z</time>
      </trkpt>
      <trkpt lat="48.70572" lon="1.74532">
        <ele>184.19999694824</ele>
        <time>2012-12-25T10:23:13.000Z</time>
      </trkpt>
      <trkpt lat="48.70584" lon="1.74524">
        <ele>184.60000610352</ele>
        <time>2012-12-25T10:23:20.000Z</time>
      </trkpt>
      <trkpt lat="48.70589" lon="1.74523">
        <ele>184.19999694824</ele>
        <time>2012-12-25T10:23:24.000Z</time>
      </trkpt>
      <trkpt lat="48.70596" lon="1.74521">
        <ele>184</ele>
        <time>2012-12-25T10:23:29.000Z</time>
      </trkpt>
      <trkpt lat="48.70606" lon="1.74518">
        <ele>183.39999389648</ele>
        <time>2012-12-25T10:23:36.000Z</time>
      </trkpt>
      <trkpt lat="48.70608" lon="1.74517">
        <ele>183.19999694824</ele>
        <time>2012-12-25T10:23:38.000Z</time>
      </trkpt>
      <trkpt lat="48.70615" lon="1.74512">
        <ele>182.80000305176</ele>
        <time>2012-12-25T10:23:45.000Z</time>
      </trkpt>
      <trkpt lat="48.70624" lon="1.74504">
        <ele>182.39999389648</ele>
        <time>2012-12-25T10:23:53.000Z</time>
      </trkpt>
      <trkpt lat="48.70635" lon="1.74497">
        <ele>181.80000305176</ele>
        <time>2012-12-25T10:24:01.000Z</time>
      </trkpt>
      <trkpt lat="48.70644" lon="1.74491">
        <ele>181.19999694824</ele>
        <time>2012-12-25T10:24:09.000Z</time>
      </trkpt>
      <trkpt lat="48.7065" lon="1.74489">
        <ele>181</ele>
        <time>2012-12-25T10:24:13.000Z</time>
      </trkpt>
      <trkpt lat="48.7066" lon="1.74485">
        <ele>180.39999389648</ele>
        <time>2012-12-25T10:24:21.000Z</time>
      </trkpt>
      <trkpt lat="48.70667" lon="1.74481">
        <ele>180.19999694824</ele>
        <time>2012-12-25T10:24:27.000Z</time>
      </trkpt>
      <trkpt lat="48.70678" lon="1.74479">
        <ele>179.80000305176</ele>
        <time>2012-12-25T10:24:34.000Z</time>
      </trkpt>
      <trkpt lat="48.70685" lon="1.74475">
        <ele>179.60000610352</ele>
        <time>2012-12-25T10:24:41.000Z</time>
      </trkpt>
      <trkpt lat="48.70695" lon="1.74469">
        <ele>179.19999694824</ele>
        <time>2012-12-25T10:24:49.000Z</time>
      </trkpt>
      <trkpt lat="48.70706" lon="1.74467">
        <ele>178.80000305176</ele>
        <time>2012-12-25T10:24:56.000Z</time>
      </trkpt>
      <trkpt lat="48.7072" lon="1.74467">
        <ele>178.39999389648</ele>
        <time>2012-12-25T10:25:06.000Z</time>
      </trkpt>
      <trkpt lat="48.70732" lon="1.74476">
        <ele>177.80000305176</ele>
        <time>2012-12-25T10:25:16.000Z</time>
      </trkpt>
      <trkpt lat="48.7074" lon="1.74484">
        <ele>177.39999389648</ele>
        <time>2012-12-25T10:25:23.000Z</time>
      </trkpt>
      <trkpt lat="48.70749" lon="1.74493">
        <ele>177</ele>
        <time>2012-12-25T10:25:31.000Z</time>
      </trkpt>
      <trkpt lat="48.70761" lon="1.74507">
        <ele>176.80000305176</ele>
        <time>2012-12-25T10:25:42.000Z</time>
      </trkpt>
      <trkpt lat="48.70771" lon="1.74518">
        <ele>176.60000610352</ele>
        <time>2012-12-25T10:25:51.000Z</time>
      </trkpt>
      <trkpt lat="48.70778" lon="1.74526">
        <ele>176.60000610352</ele>
        <time>2012-12-25T10:25:57.000Z</time>
      </trkpt>
      <trkpt lat="48.70788" lon="1.74541">
        <ele>176.39999389648</ele>
        <time>2012-12-25T10:26:04.000Z</time>
      </trkpt>
      <trkpt lat="48.70799" lon="1.74556">
        <ele>176.39999389648</ele>
        <time>2012-12-25T10:26:11.000Z</time>
      </trkpt>
      <trkpt lat="48.70806" lon="1.74564">
        <ele>176.19999694824</ele>
        <time>2012-12-25T10:26:18.000Z</time>
      </trkpt>
      <trkpt lat="48.70807" lon="1.74565">
        <ele>176.19999694824</ele>
        <time>2012-12-25T10:26:19.000Z</time>
      </trkpt>
      <trkpt lat="48.7081" lon="1.74568">
        <ele>176.19999694824</ele>
        <time>2012-12-25T10:26:22.000Z</time>
      </trkpt>
      <trkpt lat="48.70818" lon="1.7458">
        <ele>176</ele>
        <time>2012-12-25T10:26:31.000Z</time>
      </trkpt>
      <trkpt lat="48.70826" lon="1.74592">
        <ele>176</ele>
        <time>2012-12-25T10:26:38.000Z</time>
      </trkpt>
      <trkpt lat="48.70833" lon="1.74601">
        <ele>176</ele>
        <time>2012-12-25T10:26:45.000Z</time>
      </trkpt>
      <trkpt lat="48.70841" lon="1.74611">
        <ele>175.80000305176</ele>
        <time>2012-12-25T10:26:53.000Z</time>
      </trkpt>
      <trkpt lat="48.70848" lon="1.74621">
        <ele>175.80000305176</ele>
        <time>2012-12-25T10:27:00.000Z</time>
      </trkpt>
      <trkpt lat="48.70857" lon="1.7463">
        <ele>175.80000305176</ele>
        <time>2012-12-25T10:27:08.000Z</time>
      </trkpt>
      <trkpt lat="48.70865" lon="1.74641">
        <ele>175.80000305176</ele>
        <time>2012-12-25T10:27:16.000Z</time>
      </trkpt>
      <trkpt lat="48.70879" lon="1.74659">
        <ele>175.80000305176</ele>
        <time>2012-12-25T10:27:24.000Z</time>
      </trkpt>
      <trkpt lat="48.70887" lon="1.74669">
        <ele>176</ele>
        <time>2012-12-25T10:27:32.000Z</time>
      </trkpt>
      <trkpt lat="48.70892" lon="1.74677">
        <ele>176.19999694824</ele>
        <time>2012-12-25T10:27:38.000Z</time>
      </trkpt>
      <trkpt lat="48.70899" lon="1.74686">
        <ele>176.39999389648</ele>
        <time>2012-12-25T10:27:45.000Z</time>
      </trkpt>
      <trkpt lat="48.70908" lon="1.74698">
        <ele>176.80000305176</ele>
        <time>2012-12-25T10:27:55.000Z</time>
      </trkpt>
      <trkpt lat="48.70917" lon="1.74711">
        <ele>177</ele>
        <time>2012-12-25T10:28:04.000Z</time>
      </trkpt>
      <trkpt lat="48.70923" lon="1.74718">
        <ele>177.19999694824</ele>
        <time>2012-12-25T10:28:10.000Z</time>
      </trkpt>
      <trkpt lat="48.70928" lon="1.74724">
        <ele>177.39999389648</ele>
        <time>2012-12-25T10:28:15.000Z</time>
      </trkpt>
      <trkpt lat="48.70936" lon="1.74735">
        <ele>177.60000610352</ele>
        <time>2012-12-25T10:28:23.000Z</time>
      </trkpt>
      <trkpt lat="48.70944" lon="1.74745">
        <ele>177.80000305176</ele>
        <time>2012-12-25T10:28:28.000Z</time>
      </trkpt>
      <trkpt lat="48.70954" lon="1.74759">
        <ele>178</ele>
        <time>2012-12-25T10:28:35.000Z</time>
      </trkpt>
      <trkpt lat="48.70963" lon="1.74772">
        <ele>178</ele>
        <time>2012-12-25T10:28:45.000Z</time>
      </trkpt>
      <trkpt lat="48.70971" lon="1.74783">
        <ele>178.19999694824</ele>
        <time>2012-12-25T10:28:53.000Z</time>
      </trkpt>
      <trkpt lat="48.7098" lon="1.74794">
        <ele>178.39999389648</ele>
        <time>2012-12-25T10:28:59.000Z</time>
      </trkpt>
      <trkpt lat="48.70991" lon="1.74804">
        <ele>178.39999389648</ele>
        <time>2012-12-25T10:29:07.000Z</time>
      </trkpt>
      <trkpt lat="48.70998" lon="1.74813">
        <ele>178.60000610352</ele>
        <time>2012-12-25T10:29:14.000Z</time>
      </trkpt>
      <trkpt lat="48.71004" lon="1.74822">
        <ele>178.60000610352</ele>
        <time>2012-12-25T10:29:21.000Z</time>
      </trkpt>
      <trkpt lat="48.71004" lon="1.74824">
        <ele>178.60000610352</ele>
        <time>2012-12-25T10:29:24.000Z</time>
      </trkpt>
      <trkpt lat="48.71009" lon="1.74832">
        <ele>178.39999389648</ele>
        <time>2012-12-25T10:29:36.000Z</time>
      </trkpt>
      <trkpt lat="48.71011" lon="1.74839">
        <ele>178.19999694824</ele>
        <time>2012-12-25T10:29:39.000Z</time>
      </trkpt>
      <trkpt lat="48.71017" lon="1.7484">
        <ele>178</ele>
        <time>2012-12-25T10:29:46.000Z</time>
      </trkpt>
      <trkpt lat="48.71017" lon="1.7484">
        <ele>178</ele>
        <time>2012-12-25T10:29:48.000Z</time>
      </trkpt>
      <trkpt lat="48.70736" lon="1.75408">
        <ele>171.80000305176</ele>
        <time>2012-12-25T10:48:57.000Z</time>
      </trkpt>
      <trkpt lat="48.70733" lon="1.75413">
        <ele>171.80000305176</ele>
        <time>2012-12-25T10:48:59.000Z</time>
      </trkpt>
      <trkpt lat="48.70725" lon="1.75435">
        <ele>171.60000610352</ele>
        <time>2012-12-25T10:49:10.000Z</time>
      </trkpt>
      <trkpt lat="48.70723" lon="1.75439">
        <ele>171.60000610352</ele>
        <time>2012-12-25T10:49:13.000Z</time>
      </trkpt>
      <trkpt lat="48.70716" lon="1.75456">
        <ele>171.60000610352</ele>
        <time>2012-12-25T10:49:22.000Z</time>
      </trkpt>
      <trkpt lat="48.70708" lon="1.75475">
        <ele>171.80000305176</ele>
        <time>2012-12-25T10:49:32.000Z</time>
      </trkpt>
      <trkpt lat="48.70706" lon="1.75478">
        <ele>171.80000305176</ele>
        <time>2012-12-25T10:49:34.000Z</time>
      </trkpt>
    </trkseg>
  </trk>
</gpx>